<?xml version="1.0" encoding="UTF-8" standalone="no" ?><gpx xmlns="http://www.topografix.com/GPX/1/1" xmlns:gpxx="http://www.garmin.com/xmlschemas/GpxExtensions/v3" xmlns:gpxtpx="http://www.garmin.com/xmlschemas/TrackPointExtension/v1" creator="Foretrex 301" version="1.1" xmlns:xsi="http://www.w3.org/2001/XMLSchema-instance" xsi:schemaLocation="http://www.topografix.com/GPX/1/1 http://www.topografix.com/GPX/1/1/gpx.xsd http://www.garmin.com/xmlschemas/GpxExtensions/v3 http://www.garmin.com/xmlschemas/GpxExtensions/v3/GpxExtensionsv3.xsd"><metadata><link href="http://www.garmin.com"><text>Garmin International</text></link><time>2011-08-10T19:05:13Z</time></metadata><trk><name>ACTIVE LOG: 10 AUG 2011 09:04</name><trkseg><trkpt lat="51.708804" lon="-2.165147"><ele>192.40</ele><time>2011-08-10T09:04:11Z</time></trkpt><trkpt lat="51.708802" lon="-2.165153"><ele>192.88</ele><time>2011-08-10T09:04:28Z</time></trkpt><trkpt lat="51.708772" lon="-2.165073"><ele>193.36</ele><time>2011-08-10T09:04:36Z</time></trkpt><trkpt lat="51.708801" lon="-2.165247"><ele>194.32</ele><time>2011-08-10T09:04:46Z</time></trkpt><trkpt lat="51.708826" lon="-2.165373"><ele>194.80</ele><time>2011-08-10T09:04:55Z</time></trkpt><trkpt lat="51.708855" lon="-2.165411"><ele>195.77</ele><time>2011-08-10T09:05:08Z</time></trkpt><trkpt lat="51.708941" lon="-2.165534"><ele>194.32</ele><time>2011-08-10T09:05:20Z</time></trkpt><trkpt lat="51.708960" lon="-2.165561"><ele>194.80</ele><time>2011-08-10T09:05:23Z</time></trkpt><trkpt lat="51.709065" lon="-2.165603"><ele>193.36</ele><time>2011-08-10T09:05:34Z</time></trkpt><trkpt lat="51.709215" lon="-2.165590"><ele>192.88</ele><time>2011-08-10T09:05:48Z</time></trkpt><trkpt lat="51.709240" lon="-2.165596"><ele>192.88</ele><time>2011-08-10T09:05:52Z</time></trkpt><trkpt lat="51.709325" lon="-2.165743"><ele>193.36</ele><time>2011-08-10T09:06:03Z</time></trkpt><trkpt lat="51.709350" lon="-2.165812"><ele>194.32</ele><time>2011-08-10T09:06:10Z</time></trkpt><trkpt lat="51.709343" lon="-2.165975"><ele>195.28</ele><time>2011-08-10T09:06:22Z</time></trkpt><trkpt lat="51.709346" lon="-2.166174"><ele>195.28</ele><time>2011-08-10T09:06:37Z</time></trkpt><trkpt lat="51.709345" lon="-2.166311"><ele>194.80</ele><time>2011-08-10T09:06:47Z</time></trkpt><trkpt lat="51.709344" lon="-2.166467"><ele>194.32</ele><time>2011-08-10T09:06:58Z</time></trkpt><trkpt lat="51.709332" lon="-2.166551"><ele>194.32</ele><time>2011-08-10T09:07:07Z</time></trkpt><trkpt lat="51.709341" lon="-2.166695"><ele>194.32</ele><time>2011-08-10T09:07:17Z</time></trkpt><trkpt lat="51.709344" lon="-2.166728"><ele>193.84</ele><time>2011-08-10T09:07:19Z</time></trkpt><trkpt lat="51.709351" lon="-2.166834"><ele>193.84</ele><time>2011-08-10T09:07:25Z</time></trkpt><trkpt lat="51.709381" lon="-2.166884"><ele>193.84</ele><time>2011-08-10T09:07:29Z</time></trkpt><trkpt lat="51.709473" lon="-2.167065"><ele>194.32</ele><time>2011-08-10T09:07:41Z</time></trkpt><trkpt lat="51.709614" lon="-2.167133"><ele>195.28</ele><time>2011-08-10T09:07:55Z</time></trkpt><trkpt lat="51.709682" lon="-2.167161"><ele>195.77</ele><time>2011-08-10T09:08:02Z</time></trkpt><trkpt lat="51.709831" lon="-2.167216"><ele>196.25</ele><time>2011-08-10T09:08:15Z</time></trkpt><trkpt lat="51.709974" lon="-2.167237"><ele>195.77</ele><time>2011-08-10T09:08:28Z</time></trkpt><trkpt lat="51.710159" lon="-2.167273"><ele>195.77</ele><time>2011-08-10T09:08:43Z</time></trkpt><trkpt lat="51.710280" lon="-2.167306"><ele>195.28</ele><time>2011-08-10T09:08:54Z</time></trkpt><trkpt lat="51.710391" lon="-2.167309"><ele>194.32</ele><time>2011-08-10T09:09:04Z</time></trkpt><trkpt lat="51.710630" lon="-2.167301"><ele>192.88</ele><time>2011-08-10T09:09:25Z</time></trkpt><trkpt lat="51.710767" lon="-2.167314"><ele>192.40</ele><time>2011-08-10T09:09:39Z</time></trkpt><trkpt lat="51.710918" lon="-2.167344"><ele>191.92</ele><time>2011-08-10T09:09:53Z</time></trkpt><trkpt lat="51.710984" lon="-2.167367"><ele>191.44</ele><time>2011-08-10T09:10:00Z</time></trkpt><trkpt lat="51.711068" lon="-2.167437"><ele>191.92</ele><time>2011-08-10T09:10:08Z</time></trkpt><trkpt lat="51.711247" lon="-2.167453"><ele>193.36</ele><time>2011-08-10T09:10:23Z</time></trkpt><trkpt lat="51.711441" lon="-2.167401"><ele>192.88</ele><time>2011-08-10T09:10:39Z</time></trkpt><trkpt lat="51.711546" lon="-2.167392"><ele>192.40</ele><time>2011-08-10T09:10:50Z</time></trkpt><trkpt lat="51.711553" lon="-2.167410"><ele>192.40</ele><time>2011-08-10T09:11:01Z</time></trkpt><trkpt lat="51.711556" lon="-2.167432"><ele>192.88</ele><time>2011-08-10T09:11:13Z</time></trkpt><trkpt lat="51.711569" lon="-2.167443"><ele>192.88</ele><time>2011-08-10T09:11:16Z</time></trkpt><trkpt lat="51.711589" lon="-2.167470"><ele>193.36</ele><time>2011-08-10T09:11:23Z</time></trkpt><trkpt lat="51.711679" lon="-2.167509"><ele>193.36</ele><time>2011-08-10T09:11:32Z</time></trkpt><trkpt lat="51.711779" lon="-2.167566"><ele>192.88</ele><time>2011-08-10T09:11:42Z</time></trkpt><trkpt lat="51.711845" lon="-2.167605"><ele>192.40</ele><time>2011-08-10T09:11:50Z</time></trkpt><trkpt lat="51.711912" lon="-2.167649"><ele>191.92</ele><time>2011-08-10T09:11:59Z</time></trkpt><trkpt lat="51.711913" lon="-2.167646"><ele>192.40</ele><time>2011-08-10T09:12:13Z</time></trkpt><trkpt lat="51.711918" lon="-2.167640"><ele>192.40</ele><time>2011-08-10T09:12:21Z</time></trkpt><trkpt lat="51.711930" lon="-2.167643"><ele>192.88</ele><time>2011-08-10T09:12:31Z</time></trkpt><trkpt lat="51.711940" lon="-2.167646"><ele>192.88</ele><time>2011-08-10T09:12:33Z</time></trkpt><trkpt lat="51.712003" lon="-2.167663"><ele>192.88</ele><time>2011-08-10T09:12:39Z</time></trkpt><trkpt lat="51.712079" lon="-2.167724"><ele>193.36</ele><time>2011-08-10T09:12:48Z</time></trkpt><trkpt lat="51.712086" lon="-2.167735"><ele>193.36</ele><time>2011-08-10T09:13:01Z</time></trkpt><trkpt lat="51.712103" lon="-2.167741"><ele>193.36</ele><time>2011-08-10T09:13:07Z</time></trkpt><trkpt lat="51.712134" lon="-2.167747"><ele>192.88</ele><time>2011-08-10T09:13:14Z</time></trkpt><trkpt lat="51.712147" lon="-2.167726"><ele>192.88</ele><time>2011-08-10T09:13:22Z</time></trkpt><trkpt lat="51.712144" lon="-2.167699"><ele>192.40</ele><time>2011-08-10T09:13:31Z</time></trkpt><trkpt lat="51.712168" lon="-2.167739"><ele>191.44</ele><time>2011-08-10T09:13:37Z</time></trkpt><trkpt lat="51.712163" lon="-2.167694"><ele>189.04</ele><time>2011-08-10T09:13:48Z</time></trkpt><trkpt lat="51.712172" lon="-2.167705"><ele>188.56</ele><time>2011-08-10T09:13:52Z</time></trkpt><trkpt lat="51.712267" lon="-2.167834"><ele>187.59</ele><time>2011-08-10T09:14:06Z</time></trkpt><trkpt lat="51.712375" lon="-2.167940"><ele>187.59</ele><time>2011-08-10T09:14:18Z</time></trkpt><trkpt lat="51.712482" lon="-2.168025"><ele>188.08</ele><time>2011-08-10T09:14:30Z</time></trkpt><trkpt lat="51.712619" lon="-2.168105"><ele>187.59</ele><time>2011-08-10T09:14:43Z</time></trkpt><trkpt lat="51.712786" lon="-2.168175"><ele>187.11</ele><time>2011-08-10T09:14:58Z</time></trkpt><trkpt lat="51.712939" lon="-2.168217"><ele>184.71</ele><time>2011-08-10T09:15:11Z</time></trkpt><trkpt lat="51.713103" lon="-2.168282"><ele>183.27</ele><time>2011-08-10T09:15:26Z</time></trkpt><trkpt lat="51.713302" lon="-2.168330"><ele>180.38</ele><time>2011-08-10T09:15:45Z</time></trkpt><trkpt lat="51.713388" lon="-2.168375"><ele>178.94</ele><time>2011-08-10T09:15:54Z</time></trkpt><trkpt lat="51.713499" lon="-2.168472"><ele>179.42</ele><time>2011-08-10T09:16:08Z</time></trkpt><trkpt lat="51.713556" lon="-2.168538"><ele>180.87</ele><time>2011-08-10T09:16:17Z</time></trkpt><trkpt lat="51.713579" lon="-2.168551"><ele>181.35</ele><time>2011-08-10T09:16:27Z</time></trkpt><trkpt lat="51.713591" lon="-2.168542"><ele>181.35</ele><time>2011-08-10T09:16:36Z</time></trkpt><trkpt lat="51.713583" lon="-2.168556"><ele>182.31</ele><time>2011-08-10T09:17:09Z</time></trkpt><trkpt lat="51.713611" lon="-2.168546"><ele>182.79</ele><time>2011-08-10T09:17:16Z</time></trkpt><trkpt lat="51.713618" lon="-2.168556"><ele>181.83</ele><time>2011-08-10T09:17:19Z</time></trkpt><trkpt lat="51.713692" lon="-2.168687"><ele>181.83</ele><time>2011-08-10T09:17:29Z</time></trkpt><trkpt lat="51.713761" lon="-2.168815"><ele>181.35</ele><time>2011-08-10T09:17:38Z</time></trkpt><trkpt lat="51.713817" lon="-2.168914"><ele>182.31</ele><time>2011-08-10T09:17:46Z</time></trkpt><trkpt lat="51.713872" lon="-2.169104"><ele>182.79</ele><time>2011-08-10T09:17:58Z</time></trkpt><trkpt lat="51.713890" lon="-2.169244"><ele>183.75</ele><time>2011-08-10T09:18:07Z</time></trkpt><trkpt lat="51.713915" lon="-2.169394"><ele>184.71</ele><time>2011-08-10T09:18:17Z</time></trkpt><trkpt lat="51.713963" lon="-2.169536"><ele>184.23</ele><time>2011-08-10T09:18:26Z</time></trkpt><trkpt lat="51.714032" lon="-2.169683"><ele>184.23</ele><time>2011-08-10T09:18:36Z</time></trkpt><trkpt lat="51.714094" lon="-2.169829"><ele>183.75</ele><time>2011-08-10T09:18:45Z</time></trkpt><trkpt lat="51.714132" lon="-2.169965"><ele>183.27</ele><time>2011-08-10T09:18:54Z</time></trkpt><trkpt lat="51.714168" lon="-2.170073"><ele>183.27</ele><time>2011-08-10T09:19:02Z</time></trkpt><trkpt lat="51.714185" lon="-2.170196"><ele>182.79</ele><time>2011-08-10T09:19:10Z</time></trkpt><trkpt lat="51.714200" lon="-2.170290"><ele>182.79</ele><time>2011-08-10T09:19:16Z</time></trkpt><trkpt lat="51.714218" lon="-2.170445"><ele>182.79</ele><time>2011-08-10T09:19:25Z</time></trkpt><trkpt lat="51.714211" lon="-2.170637"><ele>182.79</ele><time>2011-08-10T09:19:36Z</time></trkpt><trkpt lat="51.714205" lon="-2.170800"><ele>182.79</ele><time>2011-08-10T09:19:45Z</time></trkpt><trkpt lat="51.714194" lon="-2.170938"><ele>183.27</ele><time>2011-08-10T09:19:54Z</time></trkpt><trkpt lat="51.714173" lon="-2.171075"><ele>183.27</ele><time>2011-08-10T09:20:03Z</time></trkpt><trkpt lat="51.714147" lon="-2.171253"><ele>183.27</ele><time>2011-08-10T09:20:14Z</time></trkpt><trkpt lat="51.714121" lon="-2.171418"><ele>183.75</ele><time>2011-08-10T09:20:24Z</time></trkpt><trkpt lat="51.714096" lon="-2.171586"><ele>184.71</ele><time>2011-08-10T09:20:34Z</time></trkpt><trkpt lat="51.714081" lon="-2.171724"><ele>185.19</ele><time>2011-08-10T09:20:43Z</time></trkpt><trkpt lat="51.714064" lon="-2.171866"><ele>185.19</ele><time>2011-08-10T09:20:52Z</time></trkpt><trkpt lat="51.714055" lon="-2.171907"><ele>185.67</ele><time>2011-08-10T09:21:00Z</time></trkpt><trkpt lat="51.714060" lon="-2.171915"><ele>186.15</ele><time>2011-08-10T09:21:18Z</time></trkpt><trkpt lat="51.714060" lon="-2.171913"><ele>186.15</ele><time>2011-08-10T09:21:32Z</time></trkpt><trkpt lat="51.714061" lon="-2.171956"><ele>186.15</ele><time>2011-08-10T09:21:37Z</time></trkpt><trkpt lat="51.714054" lon="-2.172007"><ele>186.15</ele><time>2011-08-10T09:21:44Z</time></trkpt><trkpt lat="51.714055" lon="-2.172023"><ele>186.63</ele><time>2011-08-10T09:22:00Z</time></trkpt><trkpt lat="51.714047" lon="-2.172040"><ele>186.63</ele><time>2011-08-10T09:22:07Z</time></trkpt><trkpt lat="51.714036" lon="-2.172173"><ele>186.63</ele><time>2011-08-10T09:22:16Z</time></trkpt><trkpt lat="51.714023" lon="-2.172261"><ele>185.67</ele><time>2011-08-10T09:22:23Z</time></trkpt><trkpt lat="51.714011" lon="-2.172386"><ele>185.19</ele><time>2011-08-10T09:22:32Z</time></trkpt><trkpt lat="51.714014" lon="-2.172416"><ele>185.67</ele><time>2011-08-10T09:22:40Z</time></trkpt><trkpt lat="51.714016" lon="-2.172408"><ele>185.67</ele><time>2011-08-10T09:22:41Z</time></trkpt><trkpt lat="51.714020" lon="-2.172344"><ele>185.67</ele><time>2011-08-10T09:22:45Z</time></trkpt><trkpt lat="51.714049" lon="-2.172162"><ele>184.71</ele><time>2011-08-10T09:22:56Z</time></trkpt><trkpt lat="51.714073" lon="-2.171991"><ele>184.23</ele><time>2011-08-10T09:23:05Z</time></trkpt><trkpt lat="51.714093" lon="-2.171917"><ele>184.23</ele><time>2011-08-10T09:23:10Z</time></trkpt><trkpt lat="51.714076" lon="-2.171942"><ele>184.23</ele><time>2011-08-10T09:23:21Z</time></trkpt><trkpt lat="51.714080" lon="-2.171905"><ele>184.23</ele><time>2011-08-10T09:23:26Z</time></trkpt><trkpt lat="51.714113" lon="-2.171679"><ele>184.23</ele><time>2011-08-10T09:23:36Z</time></trkpt><trkpt lat="51.714169" lon="-2.171462"><ele>182.79</ele><time>2011-08-10T09:23:47Z</time></trkpt><trkpt lat="51.714195" lon="-2.171316"><ele>181.83</ele><time>2011-08-10T09:23:54Z</time></trkpt><trkpt lat="51.714211" lon="-2.171158"><ele>181.83</ele><time>2011-08-10T09:24:02Z</time></trkpt><trkpt lat="51.714224" lon="-2.170975"><ele>182.79</ele><time>2011-08-10T09:24:10Z</time></trkpt><trkpt lat="51.714239" lon="-2.170873"><ele>181.83</ele><time>2011-08-10T09:24:14Z</time></trkpt><trkpt lat="51.714263" lon="-2.170569"><ele>182.79</ele><time>2011-08-10T09:24:27Z</time></trkpt><trkpt lat="51.714264" lon="-2.170504"><ele>183.27</ele><time>2011-08-10T09:24:30Z</time></trkpt><trkpt lat="51.714275" lon="-2.170301"><ele>182.79</ele><time>2011-08-10T09:24:40Z</time></trkpt><trkpt lat="51.714320" lon="-2.170139"><ele>181.83</ele><time>2011-08-10T09:24:50Z</time></trkpt><trkpt lat="51.714339" lon="-2.170070"><ele>181.35</ele><time>2011-08-10T09:24:58Z</time></trkpt><trkpt lat="51.714338" lon="-2.170071"><ele>181.35</ele><time>2011-08-10T09:25:02Z</time></trkpt><trkpt lat="51.714309" lon="-2.170047"><ele>181.83</ele><time>2011-08-10T09:25:06Z</time></trkpt><trkpt lat="51.714272" lon="-2.169881"><ele>181.83</ele><time>2011-08-10T09:25:14Z</time></trkpt><trkpt lat="51.714268" lon="-2.169829"><ele>181.83</ele><time>2011-08-10T09:25:17Z</time></trkpt><trkpt lat="51.714254" lon="-2.169729"><ele>181.35</ele><time>2011-08-10T09:25:24Z</time></trkpt><trkpt lat="51.714257" lon="-2.169619"><ele>180.87</ele><time>2011-08-10T09:25:33Z</time></trkpt><trkpt lat="51.714272" lon="-2.169576"><ele>179.42</ele><time>2011-08-10T09:25:41Z</time></trkpt><trkpt lat="51.714270" lon="-2.169559"><ele>178.46</ele><time>2011-08-10T09:25:49Z</time></trkpt><trkpt lat="51.714296" lon="-2.169458"><ele>177.02</ele><time>2011-08-10T09:26:00Z</time></trkpt><trkpt lat="51.714324" lon="-2.169369"><ele>177.02</ele><time>2011-08-10T09:26:08Z</time></trkpt><trkpt lat="51.714341" lon="-2.169328"><ele>176.06</ele><time>2011-08-10T09:26:17Z</time></trkpt><trkpt lat="51.714314" lon="-2.169289"><ele>176.54</ele><time>2011-08-10T09:26:29Z</time></trkpt><trkpt lat="51.714320" lon="-2.169182"><ele>177.98</ele><time>2011-08-10T09:26:38Z</time></trkpt><trkpt lat="51.714320" lon="-2.169167"><ele>177.98</ele><time>2011-08-10T09:26:39Z</time></trkpt><trkpt lat="51.714322" lon="-2.169136"><ele>177.98</ele><time>2011-08-10T09:26:41Z</time></trkpt><trkpt lat="51.714325" lon="-2.169103"><ele>177.98</ele><time>2011-08-10T09:26:43Z</time></trkpt><trkpt lat="51.714354" lon="-2.168978"><ele>177.98</ele><time>2011-08-10T09:26:52Z</time></trkpt><trkpt lat="51.714366" lon="-2.168864"><ele>177.02</ele><time>2011-08-10T09:27:01Z</time></trkpt><trkpt lat="51.714332" lon="-2.168693"><ele>175.10</ele><time>2011-08-10T09:27:12Z</time></trkpt><trkpt lat="51.714258" lon="-2.168550"><ele>174.14</ele><time>2011-08-10T09:27:22Z</time></trkpt><trkpt lat="51.714229" lon="-2.168481"><ele>173.17</ele><time>2011-08-10T09:27:27Z</time></trkpt><trkpt lat="51.714191" lon="-2.168391"><ele>172.69</ele><time>2011-08-10T09:27:33Z</time></trkpt><trkpt lat="51.714186" lon="-2.168282"><ele>170.29</ele><time>2011-08-10T09:27:41Z</time></trkpt><trkpt lat="51.714175" lon="-2.168249"><ele>169.33</ele><time>2011-08-10T09:27:49Z</time></trkpt><trkpt lat="51.714176" lon="-2.168271"><ele>168.37</ele><time>2011-08-10T09:27:56Z</time></trkpt><trkpt lat="51.714194" lon="-2.168149"><ele>165.00</ele><time>2011-08-10T09:28:06Z</time></trkpt><trkpt lat="51.714213" lon="-2.167995"><ele>163.56</ele><time>2011-08-10T09:28:15Z</time></trkpt><trkpt lat="51.714211" lon="-2.167830"><ele>162.12</ele><time>2011-08-10T09:28:24Z</time></trkpt><trkpt lat="51.714219" lon="-2.167774"><ele>162.60</ele><time>2011-08-10T09:28:27Z</time></trkpt><trkpt lat="51.714216" lon="-2.167645"><ele>163.08</ele><time>2011-08-10T09:28:37Z</time></trkpt><trkpt lat="51.714218" lon="-2.167611"><ele>164.04</ele><time>2011-08-10T09:28:48Z</time></trkpt><trkpt lat="51.714210" lon="-2.167602"><ele>164.52</ele><time>2011-08-10T09:29:07Z</time></trkpt><trkpt lat="51.714219" lon="-2.167607"><ele>165.48</ele><time>2011-08-10T09:29:14Z</time></trkpt><trkpt lat="51.714223" lon="-2.167569"><ele>166.93</ele><time>2011-08-10T09:29:23Z</time></trkpt><trkpt lat="51.714310" lon="-2.167441"><ele>164.04</ele><time>2011-08-10T09:29:35Z</time></trkpt><trkpt lat="51.714347" lon="-2.167421"><ele>162.60</ele><time>2011-08-10T09:29:42Z</time></trkpt><trkpt lat="51.714386" lon="-2.167391"><ele>160.20</ele><time>2011-08-10T09:29:53Z</time></trkpt><trkpt lat="51.714428" lon="-2.167252"><ele>155.39</ele><time>2011-08-10T09:30:05Z</time></trkpt><trkpt lat="51.714468" lon="-2.167100"><ele>153.47</ele><time>2011-08-10T09:30:15Z</time></trkpt><trkpt lat="51.714504" lon="-2.167020"><ele>152.51</ele><time>2011-08-10T09:30:23Z</time></trkpt><trkpt lat="51.714544" lon="-2.167019"><ele>150.10</ele><time>2011-08-10T09:30:34Z</time></trkpt><trkpt lat="51.714585" lon="-2.166992"><ele>148.18</ele><time>2011-08-10T09:30:41Z</time></trkpt><trkpt lat="51.714660" lon="-2.166952"><ele>147.22</ele><time>2011-08-10T09:30:51Z</time></trkpt><trkpt lat="51.714723" lon="-2.166883"><ele>144.82</ele><time>2011-08-10T09:31:01Z</time></trkpt><trkpt lat="51.714773" lon="-2.166762"><ele>140.97</ele><time>2011-08-10T09:31:11Z</time></trkpt><trkpt lat="51.714816" lon="-2.166644"><ele>139.53</ele><time>2011-08-10T09:31:22Z</time></trkpt><trkpt lat="51.714815" lon="-2.166539"><ele>136.64</ele><time>2011-08-10T09:31:33Z</time></trkpt><trkpt lat="51.714847" lon="-2.166385"><ele>135.20</ele><time>2011-08-10T09:31:46Z</time></trkpt><trkpt lat="51.714896" lon="-2.166321"><ele>132.32</ele><time>2011-08-10T09:31:58Z</time></trkpt><trkpt lat="51.714939" lon="-2.166246"><ele>131.84</ele><time>2011-08-10T09:32:12Z</time></trkpt><trkpt lat="51.714969" lon="-2.166185"><ele>130.88</ele><time>2011-08-10T09:32:19Z</time></trkpt><trkpt lat="51.715006" lon="-2.166114"><ele>129.43</ele><time>2011-08-10T09:32:26Z</time></trkpt><trkpt lat="51.715043" lon="-2.166008"><ele>127.99</ele><time>2011-08-10T09:32:36Z</time></trkpt><trkpt lat="51.715048" lon="-2.166000"><ele>127.99</ele><time>2011-08-10T09:32:37Z</time></trkpt><trkpt lat="51.715084" lon="-2.165948"><ele>127.51</ele><time>2011-08-10T09:32:43Z</time></trkpt><trkpt lat="51.715123" lon="-2.165913"><ele>125.59</ele><time>2011-08-10T09:32:51Z</time></trkpt><trkpt lat="51.715150" lon="-2.165895"><ele>125.59</ele><time>2011-08-10T09:33:01Z</time></trkpt><trkpt lat="51.715164" lon="-2.165924"><ele>124.63</ele><time>2011-08-10T09:33:15Z</time></trkpt><trkpt lat="51.715172" lon="-2.165928"><ele>126.55</ele><time>2011-08-10T09:33:28Z</time></trkpt><trkpt lat="51.715175" lon="-2.165938"><ele>126.55</ele><time>2011-08-10T09:33:33Z</time></trkpt><trkpt lat="51.715226" lon="-2.165928"><ele>126.07</ele><time>2011-08-10T09:33:41Z</time></trkpt><trkpt lat="51.715242" lon="-2.165847"><ele>123.67</ele><time>2011-08-10T09:33:51Z</time></trkpt><trkpt lat="51.715269" lon="-2.165810"><ele>119.34</ele><time>2011-08-10T09:34:20Z</time></trkpt><trkpt lat="51.715348" lon="-2.165742"><ele>120.78</ele><time>2011-08-10T09:34:45Z</time></trkpt><trkpt lat="51.715412" lon="-2.165741"><ele>118.38</ele><time>2011-08-10T09:34:54Z</time></trkpt><trkpt lat="51.715474" lon="-2.165674"><ele>117.42</ele><time>2011-08-10T09:35:01Z</time></trkpt><trkpt lat="51.715512" lon="-2.165615"><ele>116.94</ele><time>2011-08-10T09:35:05Z</time></trkpt><trkpt lat="51.715531" lon="-2.165586"><ele>117.42</ele><time>2011-08-10T09:35:07Z</time></trkpt><trkpt lat="51.715573" lon="-2.165516"><ele>118.38</ele><time>2011-08-10T09:35:13Z</time></trkpt><trkpt lat="51.715608" lon="-2.165464"><ele>118.38</ele><time>2011-08-10T09:35:18Z</time></trkpt><trkpt lat="51.715700" lon="-2.165401"><ele>121.26</ele><time>2011-08-10T09:35:27Z</time></trkpt><trkpt lat="51.715747" lon="-2.165337"><ele>124.15</ele><time>2011-08-10T09:35:40Z</time></trkpt><trkpt lat="51.715829" lon="-2.165264"><ele>123.19</ele><time>2011-08-10T09:35:50Z</time></trkpt><trkpt lat="51.715841" lon="-2.165323"><ele>122.71</ele><time>2011-08-10T09:36:03Z</time></trkpt><trkpt lat="51.715842" lon="-2.165325"><ele>122.22</ele><time>2011-08-10T09:36:26Z</time></trkpt><trkpt lat="51.715852" lon="-2.165330"><ele>121.26</ele><time>2011-08-10T09:36:50Z</time></trkpt><trkpt lat="51.715937" lon="-2.165415"><ele>117.42</ele><time>2011-08-10T09:36:58Z</time></trkpt><trkpt lat="51.716035" lon="-2.165530"><ele>115.01</ele><time>2011-08-10T09:37:07Z</time></trkpt><trkpt lat="51.716096" lon="-2.165620"><ele>114.53</ele><time>2011-08-10T09:37:16Z</time></trkpt><trkpt lat="51.716128" lon="-2.165651"><ele>114.53</ele><time>2011-08-10T09:37:22Z</time></trkpt><trkpt lat="51.716142" lon="-2.165657"><ele>113.57</ele><time>2011-08-10T09:37:33Z</time></trkpt><trkpt lat="51.716189" lon="-2.165655"><ele>112.13</ele><time>2011-08-10T09:37:45Z</time></trkpt><trkpt lat="51.716210" lon="-2.165655"><ele>110.69</ele><time>2011-08-10T09:37:47Z</time></trkpt><trkpt lat="51.716327" lon="-2.165762"><ele>105.40</ele><time>2011-08-10T09:37:58Z</time></trkpt><trkpt lat="51.716507" lon="-2.165894"><ele>103.48</ele><time>2011-08-10T09:38:12Z</time></trkpt><trkpt lat="51.716610" lon="-2.166000"><ele>101.08</ele><time>2011-08-10T09:38:22Z</time></trkpt><trkpt lat="51.716737" lon="-2.166070"><ele>100.60</ele><time>2011-08-10T09:38:33Z</time></trkpt><trkpt lat="51.716861" lon="-2.166098"><ele>99.15</ele><time>2011-08-10T09:38:43Z</time></trkpt><trkpt lat="51.716966" lon="-2.166137"><ele>97.23</ele><time>2011-08-10T09:38:53Z</time></trkpt><trkpt lat="51.717054" lon="-2.166189"><ele>96.27</ele><time>2011-08-10T09:39:02Z</time></trkpt><trkpt lat="51.717147" lon="-2.166224"><ele>94.83</ele><time>2011-08-10T09:39:12Z</time></trkpt><trkpt lat="51.717180" lon="-2.166252"><ele>93.87</ele><time>2011-08-10T09:39:18Z</time></trkpt><trkpt lat="51.717233" lon="-2.166249"><ele>91.94</ele><time>2011-08-10T09:39:27Z</time></trkpt><trkpt lat="51.717292" lon="-2.166282"><ele>90.02</ele><time>2011-08-10T09:39:35Z</time></trkpt><trkpt lat="51.717393" lon="-2.166290"><ele>87.14</ele><time>2011-08-10T09:39:48Z</time></trkpt><trkpt lat="51.717463" lon="-2.166309"><ele>84.25</ele><time>2011-08-10T09:39:58Z</time></trkpt><trkpt lat="51.717515" lon="-2.166316"><ele>83.29</ele><time>2011-08-10T09:40:06Z</time></trkpt><trkpt lat="51.717538" lon="-2.166314"><ele>81.85</ele><time>2011-08-10T09:40:14Z</time></trkpt><trkpt lat="51.717582" lon="-2.166316"><ele>79.93</ele><time>2011-08-10T09:40:22Z</time></trkpt><trkpt lat="51.717583" lon="-2.166311"><ele>78.97</ele><time>2011-08-10T09:40:33Z</time></trkpt><trkpt lat="51.717581" lon="-2.166308"><ele>77.04</ele><time>2011-08-10T09:41:05Z</time></trkpt><trkpt lat="51.717585" lon="-2.166313"><ele>75.60</ele><time>2011-08-10T09:41:15Z</time></trkpt><trkpt lat="51.717621" lon="-2.166302"><ele>75.12</ele><time>2011-08-10T09:41:22Z</time></trkpt><trkpt lat="51.717635" lon="-2.166278"><ele>73.68</ele><time>2011-08-10T09:41:28Z</time></trkpt><trkpt lat="51.717750" lon="-2.166314"><ele>72.24</ele><time>2011-08-10T09:41:37Z</time></trkpt><trkpt lat="51.717874" lon="-2.166376"><ele>70.79</ele><time>2011-08-10T09:41:46Z</time></trkpt><trkpt lat="51.717933" lon="-2.166425"><ele>71.27</ele><time>2011-08-10T09:41:56Z</time></trkpt><trkpt lat="51.718011" lon="-2.166441"><ele>73.20</ele><time>2011-08-10T09:42:05Z</time></trkpt><trkpt lat="51.718094" lon="-2.166465"><ele>75.60</ele><time>2011-08-10T09:42:14Z</time></trkpt><trkpt lat="51.718158" lon="-2.166500"><ele>75.60</ele><time>2011-08-10T09:42:21Z</time></trkpt><trkpt lat="51.718241" lon="-2.166494"><ele>75.60</ele><time>2011-08-10T09:42:28Z</time></trkpt><trkpt lat="51.718265" lon="-2.166453"><ele>75.60</ele><time>2011-08-10T09:42:36Z</time></trkpt><trkpt lat="51.718312" lon="-2.166418"><ele>75.60</ele><time>2011-08-10T09:42:42Z</time></trkpt><trkpt lat="51.718412" lon="-2.166396"><ele>74.16</ele><time>2011-08-10T09:42:52Z</time></trkpt><trkpt lat="51.718513" lon="-2.166385"><ele>75.12</ele><time>2011-08-10T09:43:01Z</time></trkpt><trkpt lat="51.718564" lon="-2.166418"><ele>76.56</ele><time>2011-08-10T09:43:08Z</time></trkpt><trkpt lat="51.718623" lon="-2.166386"><ele>76.56</ele><time>2011-08-10T09:43:17Z</time></trkpt><trkpt lat="51.718662" lon="-2.166353"><ele>76.08</ele><time>2011-08-10T09:43:27Z</time></trkpt><trkpt lat="51.718656" lon="-2.166347"><ele>76.56</ele><time>2011-08-10T09:43:39Z</time></trkpt><trkpt lat="51.718660" lon="-2.166352"><ele>76.56</ele><time>2011-08-10T09:43:40Z</time></trkpt><trkpt lat="51.718707" lon="-2.166382"><ele>76.56</ele><time>2011-08-10T09:43:46Z</time></trkpt><trkpt lat="51.718720" lon="-2.166401"><ele>77.04</ele><time>2011-08-10T09:43:54Z</time></trkpt><trkpt lat="51.718708" lon="-2.166408"><ele>76.56</ele><time>2011-08-10T09:43:56Z</time></trkpt><trkpt lat="51.718629" lon="-2.166329"><ele>75.12</ele><time>2011-08-10T09:44:05Z</time></trkpt><trkpt lat="51.718647" lon="-2.166342"><ele>73.68</ele><time>2011-08-10T09:44:14Z</time></trkpt><trkpt lat="51.718653" lon="-2.166348"><ele>73.20</ele><time>2011-08-10T09:44:17Z</time></trkpt><trkpt lat="51.718704" lon="-2.166427"><ele>72.24</ele><time>2011-08-10T09:44:26Z</time></trkpt><trkpt lat="51.718706" lon="-2.166425"><ele>71.27</ele><time>2011-08-10T09:44:31Z</time></trkpt><trkpt lat="51.718668" lon="-2.166416"><ele>71.27</ele><time>2011-08-10T09:44:40Z</time></trkpt><trkpt lat="51.718678" lon="-2.166414"><ele>71.76</ele><time>2011-08-10T09:45:09Z</time></trkpt><trkpt lat="51.718650" lon="-2.166322"><ele>71.76</ele><time>2011-08-10T09:45:16Z</time></trkpt><trkpt lat="51.718645" lon="-2.166275"><ele>69.35</ele><time>2011-08-10T09:45:23Z</time></trkpt><trkpt lat="51.718654" lon="-2.166251"><ele>68.87</ele><time>2011-08-10T09:45:31Z</time></trkpt><trkpt lat="51.718624" lon="-2.166284"><ele>69.35</ele><time>2011-08-10T09:45:43Z</time></trkpt><trkpt lat="51.718587" lon="-2.166478"><ele>68.39</ele><time>2011-08-10T09:45:52Z</time></trkpt><trkpt lat="51.718580" lon="-2.166583"><ele>68.39</ele><time>2011-08-10T09:45:59Z</time></trkpt><trkpt lat="51.718551" lon="-2.166686"><ele>65.51</ele><time>2011-08-10T09:46:09Z</time></trkpt><trkpt lat="51.718487" lon="-2.166840"><ele>63.58</ele><time>2011-08-10T09:46:17Z</time></trkpt><trkpt lat="51.718461" lon="-2.166950"><ele>62.62</ele><time>2011-08-10T09:46:22Z</time></trkpt><trkpt lat="51.718467" lon="-2.167146"><ele>63.10</ele><time>2011-08-10T09:46:30Z</time></trkpt><trkpt lat="51.718455" lon="-2.167325"><ele>64.55</ele><time>2011-08-10T09:46:37Z</time></trkpt><trkpt lat="51.718446" lon="-2.167552"><ele>65.99</ele><time>2011-08-10T09:46:46Z</time></trkpt><trkpt lat="51.718426" lon="-2.167704"><ele>67.91</ele><time>2011-08-10T09:46:52Z</time></trkpt><trkpt lat="51.718409" lon="-2.167912"><ele>67.43</ele><time>2011-08-10T09:47:01Z</time></trkpt><trkpt lat="51.718408" lon="-2.168074"><ele>68.39</ele><time>2011-08-10T09:47:08Z</time></trkpt><trkpt lat="51.718403" lon="-2.168121"><ele>68.87</ele><time>2011-08-10T09:47:10Z</time></trkpt><trkpt lat="51.718398" lon="-2.168231"><ele>67.91</ele><time>2011-08-10T09:47:15Z</time></trkpt><trkpt lat="51.718392" lon="-2.168440"><ele>67.43</ele><time>2011-08-10T09:47:23Z</time></trkpt><trkpt lat="51.718381" lon="-2.168636"><ele>65.99</ele><time>2011-08-10T09:47:31Z</time></trkpt><trkpt lat="51.718391" lon="-2.168876"><ele>65.99</ele><time>2011-08-10T09:47:41Z</time></trkpt><trkpt lat="51.718405" lon="-2.169054"><ele>67.43</ele><time>2011-08-10T09:47:49Z</time></trkpt><trkpt lat="51.718400" lon="-2.169273"><ele>67.43</ele><time>2011-08-10T09:47:58Z</time></trkpt><trkpt lat="51.718409" lon="-2.169422"><ele>66.95</ele><time>2011-08-10T09:48:04Z</time></trkpt><trkpt lat="51.718418" lon="-2.169631"><ele>66.95</ele><time>2011-08-10T09:48:12Z</time></trkpt><trkpt lat="51.718424" lon="-2.169704"><ele>65.51</ele><time>2011-08-10T09:48:15Z</time></trkpt><trkpt lat="51.718416" lon="-2.169880"><ele>65.03</ele><time>2011-08-10T09:48:23Z</time></trkpt><trkpt lat="51.718430" lon="-2.170110"><ele>65.03</ele><time>2011-08-10T09:48:32Z</time></trkpt><trkpt lat="51.718450" lon="-2.170294"><ele>64.07</ele><time>2011-08-10T09:48:40Z</time></trkpt><trkpt lat="51.718453" lon="-2.170491"><ele>64.55</ele><time>2011-08-10T09:48:49Z</time></trkpt><trkpt lat="51.718453" lon="-2.170775"><ele>63.58</ele><time>2011-08-10T09:49:01Z</time></trkpt><trkpt lat="51.718453" lon="-2.170969"><ele>62.14</ele><time>2011-08-10T09:49:09Z</time></trkpt><trkpt lat="51.718446" lon="-2.171210"><ele>60.70</ele><time>2011-08-10T09:49:19Z</time></trkpt><trkpt lat="51.718440" lon="-2.171380"><ele>63.10</ele><time>2011-08-10T09:49:26Z</time></trkpt><trkpt lat="51.718435" lon="-2.171602"><ele>64.07</ele><time>2011-08-10T09:49:35Z</time></trkpt><trkpt lat="51.718426" lon="-2.171774"><ele>65.51</ele><time>2011-08-10T09:49:43Z</time></trkpt><trkpt lat="51.718412" lon="-2.171919"><ele>66.47</ele><time>2011-08-10T09:49:49Z</time></trkpt><trkpt lat="51.718388" lon="-2.172168"><ele>68.39</ele><time>2011-08-10T09:49:59Z</time></trkpt><trkpt lat="51.718386" lon="-2.172329"><ele>69.35</ele><time>2011-08-10T09:50:06Z</time></trkpt><trkpt lat="51.718376" lon="-2.172509"><ele>66.95</ele><time>2011-08-10T09:50:14Z</time></trkpt><trkpt lat="51.718373" lon="-2.172549"><ele>66.95</ele><time>2011-08-10T09:50:16Z</time></trkpt><trkpt lat="51.718368" lon="-2.172628"><ele>65.99</ele><time>2011-08-10T09:50:24Z</time></trkpt><trkpt lat="51.718357" lon="-2.172691"><ele>65.99</ele><time>2011-08-10T09:50:34Z</time></trkpt><trkpt lat="51.718362" lon="-2.172741"><ele>65.99</ele><time>2011-08-10T09:50:46Z</time></trkpt><trkpt lat="51.718369" lon="-2.172836"><ele>66.95</ele><time>2011-08-10T09:50:52Z</time></trkpt><trkpt lat="51.718361" lon="-2.172900"><ele>67.91</ele><time>2011-08-10T09:50:55Z</time></trkpt><trkpt lat="51.718364" lon="-2.173061"><ele>69.83</ele><time>2011-08-10T09:51:03Z</time></trkpt><trkpt lat="51.718360" lon="-2.173164"><ele>70.31</ele><time>2011-08-10T09:51:08Z</time></trkpt><trkpt lat="51.718354" lon="-2.173213"><ele>70.31</ele><time>2011-08-10T09:51:11Z</time></trkpt><trkpt lat="51.718349" lon="-2.173380"><ele>70.31</ele><time>2011-08-10T09:51:20Z</time></trkpt><trkpt lat="51.718326" lon="-2.173598"><ele>71.27</ele><time>2011-08-10T09:51:31Z</time></trkpt><trkpt lat="51.718338" lon="-2.173758"><ele>72.24</ele><time>2011-08-10T09:51:40Z</time></trkpt><trkpt lat="51.718337" lon="-2.173792"><ele>72.24</ele><time>2011-08-10T09:51:42Z</time></trkpt><trkpt lat="51.718353" lon="-2.173932"><ele>72.24</ele><time>2011-08-10T09:51:50Z</time></trkpt><trkpt lat="51.718362" lon="-2.173984"><ele>71.27</ele><time>2011-08-10T09:51:53Z</time></trkpt><trkpt lat="51.718367" lon="-2.174137"><ele>67.91</ele><time>2011-08-10T09:52:02Z</time></trkpt><trkpt lat="51.718344" lon="-2.174202"><ele>66.47</ele><time>2011-08-10T09:52:10Z</time></trkpt><trkpt lat="51.718342" lon="-2.174224"><ele>65.99</ele><time>2011-08-10T09:52:11Z</time></trkpt><trkpt lat="51.718338" lon="-2.174267"><ele>65.51</ele><time>2011-08-10T09:52:13Z</time></trkpt><trkpt lat="51.718334" lon="-2.174428"><ele>65.03</ele><time>2011-08-10T09:52:21Z</time></trkpt><trkpt lat="51.718333" lon="-2.174575"><ele>64.07</ele><time>2011-08-10T09:52:29Z</time></trkpt><trkpt lat="51.718345" lon="-2.174703"><ele>63.10</ele><time>2011-08-10T09:52:37Z</time></trkpt><trkpt lat="51.718345" lon="-2.174892"><ele>64.55</ele><time>2011-08-10T09:52:47Z</time></trkpt><trkpt lat="51.718339" lon="-2.175073"><ele>65.03</ele><time>2011-08-10T09:52:55Z</time></trkpt><trkpt lat="51.718349" lon="-2.175250"><ele>65.03</ele><time>2011-08-10T09:53:04Z</time></trkpt><trkpt lat="51.718339" lon="-2.175451"><ele>63.58</ele><time>2011-08-10T09:53:15Z</time></trkpt><trkpt lat="51.718344" lon="-2.175600"><ele>64.55</ele><time>2011-08-10T09:53:23Z</time></trkpt><trkpt lat="51.718334" lon="-2.175828"><ele>65.99</ele><time>2011-08-10T09:53:35Z</time></trkpt><trkpt lat="51.718327" lon="-2.175949"><ele>66.95</ele><time>2011-08-10T09:53:43Z</time></trkpt><trkpt lat="51.718324" lon="-2.176080"><ele>67.91</ele><time>2011-08-10T09:53:51Z</time></trkpt><trkpt lat="51.718286" lon="-2.176400"><ele>67.91</ele><time>2011-08-10T09:54:06Z</time></trkpt><trkpt lat="51.718282" lon="-2.176597"><ele>69.83</ele><time>2011-08-10T09:54:17Z</time></trkpt><trkpt lat="51.718323" lon="-2.176586"><ele>70.31</ele><time>2011-08-10T09:54:26Z</time></trkpt><trkpt lat="51.718321" lon="-2.176590"><ele>69.83</ele><time>2011-08-10T09:54:37Z</time></trkpt><trkpt lat="51.718314" lon="-2.176608"><ele>70.31</ele><time>2011-08-10T09:54:39Z</time></trkpt><trkpt lat="51.718267" lon="-2.176819"><ele>68.87</ele><time>2011-08-10T09:54:50Z</time></trkpt><trkpt lat="51.718220" lon="-2.177021"><ele>67.43</ele><time>2011-08-10T09:55:00Z</time></trkpt><trkpt lat="51.718273" lon="-2.177104"><ele>68.87</ele><time>2011-08-10T09:55:09Z</time></trkpt><trkpt lat="51.718277" lon="-2.177091"><ele>68.87</ele><time>2011-08-10T09:55:14Z</time></trkpt><trkpt lat="51.718243" lon="-2.177084"><ele>68.39</ele><time>2011-08-10T09:55:18Z</time></trkpt><trkpt lat="51.718192" lon="-2.177091"><ele>67.43</ele><time>2011-08-10T09:55:22Z</time></trkpt><trkpt lat="51.718124" lon="-2.177078"><ele>66.47</ele><time>2011-08-10T09:55:27Z</time></trkpt><trkpt lat="51.717980" lon="-2.177107"><ele>65.99</ele><time>2011-08-10T09:55:36Z</time></trkpt><trkpt lat="51.717862" lon="-2.177239"><ele>67.43</ele><time>2011-08-10T09:55:46Z</time></trkpt><trkpt lat="51.717836" lon="-2.177263"><ele>67.91</ele><time>2011-08-10T09:55:49Z</time></trkpt><trkpt lat="51.717821" lon="-2.177273"><ele>67.91</ele><time>2011-08-10T09:55:52Z</time></trkpt><trkpt lat="51.717706" lon="-2.177367"><ele>67.91</ele><time>2011-08-10T09:56:03Z</time></trkpt><trkpt lat="51.717666" lon="-2.177406"><ele>68.39</ele><time>2011-08-10T09:56:10Z</time></trkpt><trkpt lat="51.717588" lon="-2.177569"><ele>67.43</ele><time>2011-08-10T09:56:19Z</time></trkpt><trkpt lat="51.717582" lon="-2.177586"><ele>66.95</ele><time>2011-08-10T09:56:20Z</time></trkpt><trkpt lat="51.717562" lon="-2.177661"><ele>66.95</ele><time>2011-08-10T09:56:24Z</time></trkpt><trkpt lat="51.717509" lon="-2.177698"><ele>65.99</ele><time>2011-08-10T09:56:30Z</time></trkpt><trkpt lat="51.717470" lon="-2.177821"><ele>65.99</ele><time>2011-08-10T09:56:38Z</time></trkpt><trkpt lat="51.717457" lon="-2.177915"><ele>66.95</ele><time>2011-08-10T09:56:42Z</time></trkpt><trkpt lat="51.717351" lon="-2.177891"><ele>66.95</ele><time>2011-08-10T09:56:53Z</time></trkpt><trkpt lat="51.717264" lon="-2.177867"><ele>65.51</ele><time>2011-08-10T09:57:02Z</time></trkpt><trkpt lat="51.717244" lon="-2.177861"><ele>65.51</ele><time>2011-08-10T09:57:12Z</time></trkpt><trkpt lat="51.717204" lon="-2.177904"><ele>64.07</ele><time>2011-08-10T09:57:17Z</time></trkpt><trkpt lat="51.717134" lon="-2.177931"><ele>66.95</ele><time>2011-08-10T09:57:24Z</time></trkpt><trkpt lat="51.717125" lon="-2.177910"><ele>68.39</ele><time>2011-08-10T09:57:30Z</time></trkpt><trkpt lat="51.717093" lon="-2.177887"><ele>69.83</ele><time>2011-08-10T09:57:38Z</time></trkpt><trkpt lat="51.717074" lon="-2.177905"><ele>71.76</ele><time>2011-08-10T09:57:52Z</time></trkpt><trkpt lat="51.717062" lon="-2.177924"><ele>71.76</ele><time>2011-08-10T09:57:59Z</time></trkpt><trkpt lat="51.717033" lon="-2.178106"><ele>70.79</ele><time>2011-08-10T09:58:10Z</time></trkpt><trkpt lat="51.717027" lon="-2.178131"><ele>70.31</ele><time>2011-08-10T09:58:18Z</time></trkpt><trkpt lat="51.717023" lon="-2.178197"><ele>69.35</ele><time>2011-08-10T09:58:28Z</time></trkpt><trkpt lat="51.717006" lon="-2.178226"><ele>69.35</ele><time>2011-08-10T09:58:35Z</time></trkpt><trkpt lat="51.716978" lon="-2.178259"><ele>68.87</ele><time>2011-08-10T09:58:43Z</time></trkpt><trkpt lat="51.716955" lon="-2.178233"><ele>69.35</ele><time>2011-08-10T09:58:51Z</time></trkpt><trkpt lat="51.716920" lon="-2.178329"><ele>68.39</ele><time>2011-08-10T09:59:05Z</time></trkpt><trkpt lat="51.716944" lon="-2.178295"><ele>66.47</ele><time>2011-08-10T09:59:10Z</time></trkpt><trkpt lat="51.716987" lon="-2.178213"><ele>64.55</ele><time>2011-08-10T09:59:16Z</time></trkpt><trkpt lat="51.717027" lon="-2.178146"><ele>63.10</ele><time>2011-08-10T09:59:24Z</time></trkpt><trkpt lat="51.717024" lon="-2.178153"><ele>62.14</ele><time>2011-08-10T09:59:40Z</time></trkpt><trkpt lat="51.717035" lon="-2.178156"><ele>62.62</ele><time>2011-08-10T09:59:51Z</time></trkpt><trkpt lat="51.717062" lon="-2.178131"><ele>65.03</ele><time>2011-08-10T10:00:06Z</time></trkpt><trkpt lat="51.717064" lon="-2.178130"><ele>65.03</ele><time>2011-08-10T10:00:12Z</time></trkpt><trkpt lat="51.717019" lon="-2.178102"><ele>64.07</ele><time>2011-08-10T10:00:18Z</time></trkpt><trkpt lat="51.716966" lon="-2.178034"><ele>63.58</ele><time>2011-08-10T10:00:25Z</time></trkpt><trkpt lat="51.716960" lon="-2.178026"><ele>63.58</ele><time>2011-08-10T10:00:26Z</time></trkpt><trkpt lat="51.716919" lon="-2.178001"><ele>65.51</ele><time>2011-08-10T10:00:33Z</time></trkpt><trkpt lat="51.716875" lon="-2.178040"><ele>67.43</ele><time>2011-08-10T10:00:41Z</time></trkpt><trkpt lat="51.716870" lon="-2.178046"><ele>67.43</ele><time>2011-08-10T10:00:42Z</time></trkpt><trkpt lat="51.716814" lon="-2.178050"><ele>67.91</ele><time>2011-08-10T10:00:48Z</time></trkpt><trkpt lat="51.716763" lon="-2.178033"><ele>67.91</ele><time>2011-08-10T10:00:53Z</time></trkpt><trkpt lat="51.716723" lon="-2.178124"><ele>70.31</ele><time>2011-08-10T10:01:02Z</time></trkpt><trkpt lat="51.716734" lon="-2.178141"><ele>70.79</ele><time>2011-08-10T10:01:21Z</time></trkpt><trkpt lat="51.716728" lon="-2.178260"><ele>71.27</ele><time>2011-08-10T10:01:30Z</time></trkpt><trkpt lat="51.716700" lon="-2.178369"><ele>71.27</ele><time>2011-08-10T10:01:39Z</time></trkpt><trkpt lat="51.716679" lon="-2.178509"><ele>70.79</ele><time>2011-08-10T10:01:48Z</time></trkpt><trkpt lat="51.716651" lon="-2.178562"><ele>75.60</ele><time>2011-08-10T10:01:57Z</time></trkpt><trkpt lat="51.716627" lon="-2.178673"><ele>78.48</ele><time>2011-08-10T10:02:05Z</time></trkpt><trkpt lat="51.716619" lon="-2.178756"><ele>78.97</ele><time>2011-08-10T10:02:13Z</time></trkpt><trkpt lat="51.716582" lon="-2.178870"><ele>79.93</ele><time>2011-08-10T10:02:22Z</time></trkpt><trkpt lat="51.716544" lon="-2.179006"><ele>78.97</ele><time>2011-08-10T10:02:31Z</time></trkpt><trkpt lat="51.716518" lon="-2.179093"><ele>78.97</ele><time>2011-08-10T10:02:40Z</time></trkpt><trkpt lat="51.716510" lon="-2.179105"><ele>79.93</ele><time>2011-08-10T10:02:45Z</time></trkpt><trkpt lat="51.716440" lon="-2.179167"><ele>80.41</ele><time>2011-08-10T10:02:57Z</time></trkpt><trkpt lat="51.716399" lon="-2.179200"><ele>80.89</ele><time>2011-08-10T10:03:06Z</time></trkpt><trkpt lat="51.716342" lon="-2.179272"><ele>83.29</ele><time>2011-08-10T10:03:15Z</time></trkpt><trkpt lat="51.716321" lon="-2.179328"><ele>84.73</ele><time>2011-08-10T10:03:23Z</time></trkpt><trkpt lat="51.716296" lon="-2.179402"><ele>86.66</ele><time>2011-08-10T10:03:33Z</time></trkpt><trkpt lat="51.716281" lon="-2.179477"><ele>89.54</ele><time>2011-08-10T10:03:44Z</time></trkpt><trkpt lat="51.716204" lon="-2.179582"><ele>94.35</ele><time>2011-08-10T10:04:21Z</time></trkpt><trkpt lat="51.716159" lon="-2.179594"><ele>93.87</ele><time>2011-08-10T10:04:31Z</time></trkpt><trkpt lat="51.716111" lon="-2.179576"><ele>94.83</ele><time>2011-08-10T10:04:46Z</time></trkpt><trkpt lat="51.716043" lon="-2.179504"><ele>95.79</ele><time>2011-08-10T10:05:00Z</time></trkpt><trkpt lat="51.716005" lon="-2.179461"><ele>97.23</ele><time>2011-08-10T10:05:08Z</time></trkpt><trkpt lat="51.715936" lon="-2.179422"><ele>100.60</ele><time>2011-08-10T10:05:19Z</time></trkpt><trkpt lat="51.715938" lon="-2.179399"><ele>101.08</ele><time>2011-08-10T10:05:25Z</time></trkpt><trkpt lat="51.715926" lon="-2.179370"><ele>101.56</ele><time>2011-08-10T10:05:31Z</time></trkpt><trkpt lat="51.715877" lon="-2.179337"><ele>103.48</ele><time>2011-08-10T10:05:38Z</time></trkpt><trkpt lat="51.715855" lon="-2.179299"><ele>103.96</ele><time>2011-08-10T10:05:46Z</time></trkpt><trkpt lat="51.715831" lon="-2.179249"><ele>104.92</ele><time>2011-08-10T10:05:55Z</time></trkpt><trkpt lat="51.715806" lon="-2.179186"><ele>106.36</ele><time>2011-08-10T10:06:01Z</time></trkpt><trkpt lat="51.715750" lon="-2.179151"><ele>106.84</ele><time>2011-08-10T10:06:09Z</time></trkpt><trkpt lat="51.715677" lon="-2.179082"><ele>107.32</ele><time>2011-08-10T10:06:18Z</time></trkpt><trkpt lat="51.715643" lon="-2.178965"><ele>107.81</ele><time>2011-08-10T10:06:28Z</time></trkpt><trkpt lat="51.715647" lon="-2.178873"><ele>107.81</ele><time>2011-08-10T10:06:38Z</time></trkpt><trkpt lat="51.715665" lon="-2.178757"><ele>108.77</ele><time>2011-08-10T10:06:49Z</time></trkpt><trkpt lat="51.715648" lon="-2.178595"><ele>112.13</ele><time>2011-08-10T10:07:03Z</time></trkpt><trkpt lat="51.715674" lon="-2.178522"><ele>113.09</ele><time>2011-08-10T10:07:13Z</time></trkpt><trkpt lat="51.715683" lon="-2.178499"><ele>114.53</ele><time>2011-08-10T10:07:32Z</time></trkpt><trkpt lat="51.715689" lon="-2.178435"><ele>114.05</ele><time>2011-08-10T10:07:39Z</time></trkpt><trkpt lat="51.715684" lon="-2.178392"><ele>114.05</ele><time>2011-08-10T10:07:42Z</time></trkpt><trkpt lat="51.715673" lon="-2.178265"><ele>114.05</ele><time>2011-08-10T10:07:50Z</time></trkpt><trkpt lat="51.715669" lon="-2.178143"><ele>113.57</ele><time>2011-08-10T10:07:58Z</time></trkpt><trkpt lat="51.715646" lon="-2.177999"><ele>112.61</ele><time>2011-08-10T10:08:07Z</time></trkpt><trkpt lat="51.715632" lon="-2.177862"><ele>112.61</ele><time>2011-08-10T10:08:15Z</time></trkpt><trkpt lat="51.715632" lon="-2.177774"><ele>113.09</ele><time>2011-08-10T10:08:22Z</time></trkpt><trkpt lat="51.715628" lon="-2.177659"><ele>114.05</ele><time>2011-08-10T10:08:30Z</time></trkpt><trkpt lat="51.715618" lon="-2.177574"><ele>114.05</ele><time>2011-08-10T10:08:38Z</time></trkpt><trkpt lat="51.715622" lon="-2.177512"><ele>114.53</ele><time>2011-08-10T10:08:45Z</time></trkpt><trkpt lat="51.715612" lon="-2.177437"><ele>115.50</ele><time>2011-08-10T10:08:54Z</time></trkpt><trkpt lat="51.715618" lon="-2.177460"><ele>116.94</ele><time>2011-08-10T10:09:04Z</time></trkpt><trkpt lat="51.715624" lon="-2.177484"><ele>116.94</ele><time>2011-08-10T10:09:16Z</time></trkpt><trkpt lat="51.715638" lon="-2.177440"><ele>117.90</ele><time>2011-08-10T10:09:27Z</time></trkpt><trkpt lat="51.715633" lon="-2.177403"><ele>118.86</ele><time>2011-08-10T10:09:30Z</time></trkpt><trkpt lat="51.715622" lon="-2.177287"><ele>120.78</ele><time>2011-08-10T10:09:37Z</time></trkpt><trkpt lat="51.715646" lon="-2.177129"><ele>124.15</ele><time>2011-08-10T10:09:46Z</time></trkpt><trkpt lat="51.715656" lon="-2.176966"><ele>126.07</ele><time>2011-08-10T10:09:55Z</time></trkpt><trkpt lat="51.715639" lon="-2.176881"><ele>127.51</ele><time>2011-08-10T10:10:02Z</time></trkpt><trkpt lat="51.715628" lon="-2.176768"><ele>129.92</ele><time>2011-08-10T10:10:09Z</time></trkpt><trkpt lat="51.715607" lon="-2.176643"><ele>130.88</ele><time>2011-08-10T10:10:18Z</time></trkpt><trkpt lat="51.715594" lon="-2.176533"><ele>132.32</ele><time>2011-08-10T10:10:26Z</time></trkpt><trkpt lat="51.715583" lon="-2.176498"><ele>132.80</ele><time>2011-08-10T10:10:29Z</time></trkpt><trkpt lat="51.715541" lon="-2.176358"><ele>135.68</ele><time>2011-08-10T10:10:38Z</time></trkpt><trkpt lat="51.715527" lon="-2.176248"><ele>136.64</ele><time>2011-08-10T10:10:45Z</time></trkpt><trkpt lat="51.715512" lon="-2.176170"><ele>136.64</ele><time>2011-08-10T10:10:51Z</time></trkpt><trkpt lat="51.715521" lon="-2.176110"><ele>137.13</ele><time>2011-08-10T10:11:01Z</time></trkpt><trkpt lat="51.715506" lon="-2.175999"><ele>137.61</ele><time>2011-08-10T10:11:09Z</time></trkpt><trkpt lat="51.715458" lon="-2.175860"><ele>138.57</ele><time>2011-08-10T10:11:19Z</time></trkpt><trkpt lat="51.715448" lon="-2.175822"><ele>138.57</ele><time>2011-08-10T10:11:22Z</time></trkpt><trkpt lat="51.715439" lon="-2.175724"><ele>139.53</ele><time>2011-08-10T10:11:30Z</time></trkpt><trkpt lat="51.715429" lon="-2.175614"><ele>140.01</ele><time>2011-08-10T10:11:39Z</time></trkpt><trkpt lat="51.715411" lon="-2.175536"><ele>141.45</ele><time>2011-08-10T10:11:46Z</time></trkpt><trkpt lat="51.715381" lon="-2.175388"><ele>143.37</ele><time>2011-08-10T10:11:56Z</time></trkpt><trkpt lat="51.715375" lon="-2.175324"><ele>143.85</ele><time>2011-08-10T10:12:15Z</time></trkpt><trkpt lat="51.715331" lon="-2.175253"><ele>144.82</ele><time>2011-08-10T10:12:23Z</time></trkpt><trkpt lat="51.715239" lon="-2.175269"><ele>145.30</ele><time>2011-08-10T10:12:33Z</time></trkpt><trkpt lat="51.715219" lon="-2.175330"><ele>145.78</ele><time>2011-08-10T10:12:38Z</time></trkpt><trkpt lat="51.715170" lon="-2.175480"><ele>147.70</ele><time>2011-08-10T10:12:47Z</time></trkpt><trkpt lat="51.715131" lon="-2.175627"><ele>148.66</ele><time>2011-08-10T10:12:56Z</time></trkpt><trkpt lat="51.715122" lon="-2.175706"><ele>148.66</ele><time>2011-08-10T10:13:03Z</time></trkpt><trkpt lat="51.715105" lon="-2.175823"><ele>150.10</ele><time>2011-08-10T10:13:12Z</time></trkpt><trkpt lat="51.715099" lon="-2.175993"><ele>152.99</ele><time>2011-08-10T10:13:22Z</time></trkpt><trkpt lat="51.715056" lon="-2.176115"><ele>154.91</ele><time>2011-08-10T10:13:30Z</time></trkpt><trkpt lat="51.715036" lon="-2.176221"><ele>154.43</ele><time>2011-08-10T10:13:38Z</time></trkpt><trkpt lat="51.715026" lon="-2.176305"><ele>154.91</ele><time>2011-08-10T10:13:46Z</time></trkpt><trkpt lat="51.715030" lon="-2.176339"><ele>154.43</ele><time>2011-08-10T10:14:07Z</time></trkpt><trkpt lat="51.715008" lon="-2.176413"><ele>155.39</ele><time>2011-08-10T10:14:50Z</time></trkpt><trkpt lat="51.714955" lon="-2.176584"><ele>156.35</ele><time>2011-08-10T10:14:58Z</time></trkpt><trkpt lat="51.714983" lon="-2.176569"><ele>155.39</ele><time>2011-08-10T10:15:06Z</time></trkpt><trkpt lat="51.714983" lon="-2.176557"><ele>154.43</ele><time>2011-08-10T10:15:08Z</time></trkpt><trkpt lat="51.714946" lon="-2.176698"><ele>152.99</ele><time>2011-08-10T10:15:16Z</time></trkpt><trkpt lat="51.714910" lon="-2.176927"><ele>151.06</ele><time>2011-08-10T10:15:24Z</time></trkpt><trkpt lat="51.714899" lon="-2.177125"><ele>150.10</ele><time>2011-08-10T10:15:32Z</time></trkpt><trkpt lat="51.714895" lon="-2.177312"><ele>150.10</ele><time>2011-08-10T10:15:40Z</time></trkpt><trkpt lat="51.714894" lon="-2.177520"><ele>149.14</ele><time>2011-08-10T10:15:48Z</time></trkpt><trkpt lat="51.714865" lon="-2.177724"><ele>149.14</ele><time>2011-08-10T10:15:56Z</time></trkpt><trkpt lat="51.714807" lon="-2.177919"><ele>149.62</ele><time>2011-08-10T10:16:04Z</time></trkpt><trkpt lat="51.714759" lon="-2.178053"><ele>150.10</ele><time>2011-08-10T10:16:10Z</time></trkpt><trkpt lat="51.714650" lon="-2.178194"><ele>150.10</ele><time>2011-08-10T10:16:19Z</time></trkpt><trkpt lat="51.714636" lon="-2.178205"><ele>150.10</ele><time>2011-08-10T10:16:20Z</time></trkpt><trkpt lat="51.714564" lon="-2.178253"><ele>150.10</ele><time>2011-08-10T10:16:25Z</time></trkpt><trkpt lat="51.714542" lon="-2.178270"><ele>150.58</ele><time>2011-08-10T10:16:27Z</time></trkpt><trkpt lat="51.714483" lon="-2.178305"><ele>153.95</ele><time>2011-08-10T10:16:34Z</time></trkpt><trkpt lat="51.714407" lon="-2.178340"><ele>156.35</ele><time>2011-08-10T10:16:45Z</time></trkpt><trkpt lat="51.714301" lon="-2.178284"><ele>160.20</ele><time>2011-08-10T10:16:57Z</time></trkpt><trkpt lat="51.714205" lon="-2.178232"><ele>162.60</ele><time>2011-08-10T10:17:07Z</time></trkpt><trkpt lat="51.714187" lon="-2.178221"><ele>163.08</ele><time>2011-08-10T10:17:09Z</time></trkpt><trkpt lat="51.714124" lon="-2.178190"><ele>166.45</ele><time>2011-08-10T10:17:18Z</time></trkpt><trkpt lat="51.714077" lon="-2.178215"><ele>168.85</ele><time>2011-08-10T10:17:28Z</time></trkpt><trkpt lat="51.713993" lon="-2.178179"><ele>167.89</ele><time>2011-08-10T10:17:38Z</time></trkpt><trkpt lat="51.713928" lon="-2.178152"><ele>167.89</ele><time>2011-08-10T10:17:47Z</time></trkpt><trkpt lat="51.713864" lon="-2.178143"><ele>167.89</ele><time>2011-08-10T10:17:56Z</time></trkpt><trkpt lat="51.713794" lon="-2.178164"><ele>167.89</ele><time>2011-08-10T10:18:05Z</time></trkpt><trkpt lat="51.713725" lon="-2.178181"><ele>168.85</ele><time>2011-08-10T10:18:16Z</time></trkpt><trkpt lat="51.713645" lon="-2.178187"><ele>169.81</ele><time>2011-08-10T10:18:24Z</time></trkpt><trkpt lat="51.713570" lon="-2.178177"><ele>170.77</ele><time>2011-08-10T10:18:33Z</time></trkpt><trkpt lat="51.713499" lon="-2.178118"><ele>172.69</ele><time>2011-08-10T10:18:41Z</time></trkpt><trkpt lat="51.713425" lon="-2.178099"><ele>172.69</ele><time>2011-08-10T10:18:48Z</time></trkpt><trkpt lat="51.713357" lon="-2.178103"><ele>172.21</ele><time>2011-08-10T10:18:55Z</time></trkpt><trkpt lat="51.713311" lon="-2.178135"><ele>171.73</ele><time>2011-08-10T10:19:00Z</time></trkpt><trkpt lat="51.713292" lon="-2.178178"><ele>171.73</ele><time>2011-08-10T10:19:03Z</time></trkpt><trkpt lat="51.713255" lon="-2.178363"><ele>170.29</ele><time>2011-08-10T10:19:13Z</time></trkpt><trkpt lat="51.713227" lon="-2.178469"><ele>170.77</ele><time>2011-08-10T10:19:20Z</time></trkpt><trkpt lat="51.713156" lon="-2.178612"><ele>171.25</ele><time>2011-08-10T10:19:30Z</time></trkpt><trkpt lat="51.713082" lon="-2.178729"><ele>173.66</ele><time>2011-08-10T10:19:39Z</time></trkpt><trkpt lat="51.712983" lon="-2.178852"><ele>176.06</ele><time>2011-08-10T10:19:47Z</time></trkpt><trkpt lat="51.712921" lon="-2.179005"><ele>178.46</ele><time>2011-08-10T10:19:54Z</time></trkpt><trkpt lat="51.712905" lon="-2.179065"><ele>179.90</ele><time>2011-08-10T10:19:57Z</time></trkpt><trkpt lat="51.712846" lon="-2.179199"><ele>181.83</ele><time>2011-08-10T10:20:04Z</time></trkpt><trkpt lat="51.712800" lon="-2.179274"><ele>181.83</ele><time>2011-08-10T10:20:09Z</time></trkpt><trkpt lat="51.712760" lon="-2.179437"><ele>182.31</ele><time>2011-08-10T10:20:17Z</time></trkpt><trkpt lat="51.712758" lon="-2.179460"><ele>182.31</ele><time>2011-08-10T10:20:18Z</time></trkpt><trkpt lat="51.712648" lon="-2.179643"><ele>179.42</ele><time>2011-08-10T10:20:25Z</time></trkpt><trkpt lat="51.712635" lon="-2.179666"><ele>179.42</ele><time>2011-08-10T10:20:26Z</time></trkpt><trkpt lat="51.712582" lon="-2.179800"><ele>179.42</ele><time>2011-08-10T10:20:35Z</time></trkpt><trkpt lat="51.712535" lon="-2.179912"><ele>176.06</ele><time>2011-08-10T10:20:42Z</time></trkpt><trkpt lat="51.712487" lon="-2.179983"><ele>177.02</ele><time>2011-08-10T10:20:48Z</time></trkpt><trkpt lat="51.712443" lon="-2.180061"><ele>178.46</ele><time>2011-08-10T10:20:53Z</time></trkpt><trkpt lat="51.712392" lon="-2.180260"><ele>181.83</ele><time>2011-08-10T10:21:01Z</time></trkpt><trkpt lat="51.712359" lon="-2.180377"><ele>182.79</ele><time>2011-08-10T10:21:06Z</time></trkpt><trkpt lat="51.712290" lon="-2.180602"><ele>183.27</ele><time>2011-08-10T10:21:16Z</time></trkpt><trkpt lat="51.712261" lon="-2.180787"><ele>184.23</ele><time>2011-08-10T10:21:24Z</time></trkpt><trkpt lat="51.712251" lon="-2.180828"><ele>184.23</ele><time>2011-08-10T10:21:26Z</time></trkpt><trkpt lat="51.712252" lon="-2.180938"><ele>184.23</ele><time>2011-08-10T10:21:31Z</time></trkpt><trkpt lat="51.712234" lon="-2.181173"><ele>184.23</ele><time>2011-08-10T10:21:41Z</time></trkpt><trkpt lat="51.712187" lon="-2.181306"><ele>182.31</ele><time>2011-08-10T10:21:48Z</time></trkpt><trkpt lat="51.712134" lon="-2.181493"><ele>177.98</ele><time>2011-08-10T10:21:59Z</time></trkpt><trkpt lat="51.712093" lon="-2.181668"><ele>176.06</ele><time>2011-08-10T10:22:08Z</time></trkpt><trkpt lat="51.712045" lon="-2.181793"><ele>175.10</ele><time>2011-08-10T10:22:15Z</time></trkpt><trkpt lat="51.711983" lon="-2.181925"><ele>174.14</ele><time>2011-08-10T10:22:23Z</time></trkpt><trkpt lat="51.711944" lon="-2.182047"><ele>173.66</ele><time>2011-08-10T10:22:30Z</time></trkpt><trkpt lat="51.711928" lon="-2.182146"><ele>173.17</ele><time>2011-08-10T10:22:35Z</time></trkpt><trkpt lat="51.711912" lon="-2.182269"><ele>172.69</ele><time>2011-08-10T10:22:41Z</time></trkpt><trkpt lat="51.711896" lon="-2.182417"><ele>171.73</ele><time>2011-08-10T10:22:49Z</time></trkpt><trkpt lat="51.711925" lon="-2.182610"><ele>171.73</ele><time>2011-08-10T10:22:58Z</time></trkpt><trkpt lat="51.711925" lon="-2.182635"><ele>172.21</ele><time>2011-08-10T10:22:59Z</time></trkpt><trkpt lat="51.711918" lon="-2.182765"><ele>172.21</ele><time>2011-08-10T10:23:06Z</time></trkpt><trkpt lat="51.711900" lon="-2.182949"><ele>172.21</ele><time>2011-08-10T10:23:14Z</time></trkpt><trkpt lat="51.711859" lon="-2.183141"><ele>173.66</ele><time>2011-08-10T10:23:22Z</time></trkpt><trkpt lat="51.711809" lon="-2.183420"><ele>173.66</ele><time>2011-08-10T10:23:36Z</time></trkpt><trkpt lat="51.711802" lon="-2.183456"><ele>174.14</ele><time>2011-08-10T10:23:41Z</time></trkpt><trkpt lat="51.711796" lon="-2.183479"><ele>174.62</ele><time>2011-08-10T10:23:46Z</time></trkpt><trkpt lat="51.711814" lon="-2.183502"><ele>173.66</ele><time>2011-08-10T10:23:55Z</time></trkpt><trkpt lat="51.711837" lon="-2.183504"><ele>173.66</ele><time>2011-08-10T10:24:12Z</time></trkpt><trkpt lat="51.711837" lon="-2.183502"><ele>174.14</ele><time>2011-08-10T10:24:33Z</time></trkpt><trkpt lat="51.711748" lon="-2.183419"><ele>175.58</ele><time>2011-08-10T10:24:41Z</time></trkpt><trkpt lat="51.711747" lon="-2.183378"><ele>174.62</ele><time>2011-08-10T10:24:50Z</time></trkpt><trkpt lat="51.711746" lon="-2.183380"><ele>174.14</ele><time>2011-08-10T10:24:58Z</time></trkpt><trkpt lat="51.711750" lon="-2.183386"><ele>173.17</ele><time>2011-08-10T10:25:00Z</time></trkpt><trkpt lat="51.711810" lon="-2.183387"><ele>172.21</ele><time>2011-08-10T10:25:09Z</time></trkpt><trkpt lat="51.711816" lon="-2.183400"><ele>172.69</ele><time>2011-08-10T10:25:17Z</time></trkpt><trkpt lat="51.711843" lon="-2.183387"><ele>171.25</ele><time>2011-08-10T10:25:23Z</time></trkpt><trkpt lat="51.711844" lon="-2.183362"><ele>167.89</ele><time>2011-08-10T10:25:34Z</time></trkpt><trkpt lat="51.711847" lon="-2.183355"><ele>166.93</ele><time>2011-08-10T10:26:01Z</time></trkpt><trkpt lat="51.711819" lon="-2.183372"><ele>166.93</ele><time>2011-08-10T10:26:09Z</time></trkpt><trkpt lat="51.711816" lon="-2.183364"><ele>165.48</ele><time>2011-08-10T10:26:18Z</time></trkpt><trkpt lat="51.711815" lon="-2.183365"><ele>165.96</ele><time>2011-08-10T10:26:34Z</time></trkpt><trkpt lat="51.711810" lon="-2.183361"><ele>163.56</ele><time>2011-08-10T10:26:53Z</time></trkpt><trkpt lat="51.711804" lon="-2.183358"><ele>163.56</ele><time>2011-08-10T10:27:03Z</time></trkpt><trkpt lat="51.711808" lon="-2.183347"><ele>163.08</ele><time>2011-08-10T10:27:18Z</time></trkpt><trkpt lat="51.711798" lon="-2.183368"><ele>163.08</ele><time>2011-08-10T10:27:30Z</time></trkpt><trkpt lat="51.711800" lon="-2.183364"><ele>163.56</ele><time>2011-08-10T10:27:58Z</time></trkpt><trkpt lat="51.711784" lon="-2.183388"><ele>163.08</ele><time>2011-08-10T10:28:24Z</time></trkpt><trkpt lat="51.711781" lon="-2.183404"><ele>162.60</ele><time>2011-08-10T10:28:34Z</time></trkpt><trkpt lat="51.711826" lon="-2.183415"><ele>165.48</ele><time>2011-08-10T10:29:05Z</time></trkpt><trkpt lat="51.711844" lon="-2.183360"><ele>166.45</ele><time>2011-08-10T10:29:12Z</time></trkpt><trkpt lat="51.711837" lon="-2.183369"><ele>166.93</ele><time>2011-08-10T10:29:19Z</time></trkpt><trkpt lat="51.711825" lon="-2.183386"><ele>166.93</ele><time>2011-08-10T10:29:28Z</time></trkpt><trkpt lat="51.711824" lon="-2.183386"><ele>166.93</ele><time>2011-08-10T10:29:36Z</time></trkpt><trkpt lat="51.711805" lon="-2.183374"><ele>166.45</ele><time>2011-08-10T10:29:43Z</time></trkpt><trkpt lat="51.711796" lon="-2.183380"><ele>165.48</ele><time>2011-08-10T10:29:56Z</time></trkpt><trkpt lat="51.711807" lon="-2.183381"><ele>165.00</ele><time>2011-08-10T10:30:06Z</time></trkpt><trkpt lat="51.711849" lon="-2.183354"><ele>164.52</ele><time>2011-08-10T10:30:14Z</time></trkpt><trkpt lat="51.711844" lon="-2.183327"><ele>164.04</ele><time>2011-08-10T10:30:27Z</time></trkpt><trkpt lat="51.711825" lon="-2.183291"><ele>164.52</ele><time>2011-08-10T10:30:36Z</time></trkpt><trkpt lat="51.711826" lon="-2.183293"><ele>165.00</ele><time>2011-08-10T10:30:48Z</time></trkpt><trkpt lat="51.711783" lon="-2.183299"><ele>165.48</ele><time>2011-08-10T10:30:53Z</time></trkpt><trkpt lat="51.711778" lon="-2.183302"><ele>165.48</ele><time>2011-08-10T10:30:57Z</time></trkpt><trkpt lat="51.711830" lon="-2.183324"><ele>166.45</ele><time>2011-08-10T10:31:04Z</time></trkpt><trkpt lat="51.711827" lon="-2.183329"><ele>166.93</ele><time>2011-08-10T10:31:19Z</time></trkpt><trkpt lat="51.711773" lon="-2.183319"><ele>166.93</ele><time>2011-08-10T10:31:26Z</time></trkpt><trkpt lat="51.711772" lon="-2.183327"><ele>166.93</ele><time>2011-08-10T10:31:30Z</time></trkpt><trkpt lat="51.711818" lon="-2.183372"><ele>169.81</ele><time>2011-08-10T10:31:39Z</time></trkpt><trkpt lat="51.711808" lon="-2.183353"><ele>169.81</ele><time>2011-08-10T10:31:49Z</time></trkpt><trkpt lat="51.711824" lon="-2.183314"><ele>168.85</ele><time>2011-08-10T10:31:57Z</time></trkpt><trkpt lat="51.711822" lon="-2.183301"><ele>168.85</ele><time>2011-08-10T10:32:13Z</time></trkpt><trkpt lat="51.711819" lon="-2.183298"><ele>168.37</ele><time>2011-08-10T10:32:41Z</time></trkpt><trkpt lat="51.711778" lon="-2.183290"><ele>167.41</ele><time>2011-08-10T10:32:47Z</time></trkpt><trkpt lat="51.711776" lon="-2.183288"><ele>166.93</ele><time>2011-08-10T10:32:49Z</time></trkpt><trkpt lat="51.711834" lon="-2.183328"><ele>165.96</ele><time>2011-08-10T10:32:56Z</time></trkpt><trkpt lat="51.711809" lon="-2.183320"><ele>166.93</ele><time>2011-08-10T10:33:05Z</time></trkpt><trkpt lat="51.711786" lon="-2.183314"><ele>167.41</ele><time>2011-08-10T10:33:15Z</time></trkpt><trkpt lat="51.711794" lon="-2.183312"><ele>168.37</ele><time>2011-08-10T10:33:26Z</time></trkpt><trkpt lat="51.711799" lon="-2.183319"><ele>168.37</ele><time>2011-08-10T10:33:46Z</time></trkpt><trkpt lat="51.711795" lon="-2.183336"><ele>167.89</ele><time>2011-08-10T10:35:01Z</time></trkpt><trkpt lat="51.711796" lon="-2.183335"><ele>166.93</ele><time>2011-08-10T10:35:12Z</time></trkpt><trkpt lat="51.711814" lon="-2.183358"><ele>166.93</ele><time>2011-08-10T10:36:11Z</time></trkpt><trkpt lat="51.711803" lon="-2.183327"><ele>166.93</ele><time>2011-08-10T10:37:19Z</time></trkpt><trkpt lat="51.711804" lon="-2.183327"><ele>166.45</ele><time>2011-08-10T10:37:39Z</time></trkpt><trkpt lat="51.711803" lon="-2.183326"><ele>163.56</ele><time>2011-08-10T10:39:52Z</time></trkpt><trkpt lat="51.711806" lon="-2.183330"><ele>163.08</ele><time>2011-08-10T10:40:09Z</time></trkpt><trkpt lat="51.711806" lon="-2.183326"><ele>163.56</ele><time>2011-08-10T10:42:11Z</time></trkpt><trkpt lat="51.711805" lon="-2.183339"><ele>165.00</ele><time>2011-08-10T10:42:25Z</time></trkpt><trkpt lat="51.711809" lon="-2.183345"><ele>165.48</ele><time>2011-08-10T10:43:40Z</time></trkpt><trkpt lat="51.711815" lon="-2.183306"><ele>166.93</ele><time>2011-08-10T10:44:01Z</time></trkpt><trkpt lat="51.711808" lon="-2.183298"><ele>166.45</ele><time>2011-08-10T10:44:44Z</time></trkpt><trkpt lat="51.711803" lon="-2.183329"><ele>166.93</ele><time>2011-08-10T10:45:02Z</time></trkpt><trkpt lat="51.711811" lon="-2.183340"><ele>169.33</ele><time>2011-08-10T10:45:39Z</time></trkpt><trkpt lat="51.711803" lon="-2.183342"><ele>170.29</ele><time>2011-08-10T10:45:59Z</time></trkpt><trkpt lat="51.711807" lon="-2.183371"><ele>170.29</ele><time>2011-08-10T10:46:39Z</time></trkpt><trkpt lat="51.711805" lon="-2.183367"><ele>169.33</ele><time>2011-08-10T10:47:15Z</time></trkpt><trkpt lat="51.711815" lon="-2.183370"><ele>170.29</ele><time>2011-08-10T10:47:23Z</time></trkpt><trkpt lat="51.711819" lon="-2.183378"><ele>169.81</ele><time>2011-08-10T10:47:46Z</time></trkpt><trkpt lat="51.711842" lon="-2.183365"><ele>169.33</ele><time>2011-08-10T10:47:55Z</time></trkpt><trkpt lat="51.711836" lon="-2.183357"><ele>169.33</ele><time>2011-08-10T10:48:08Z</time></trkpt><trkpt lat="51.711853" lon="-2.183360"><ele>168.37</ele><time>2011-08-10T10:49:04Z</time></trkpt><trkpt lat="51.711853" lon="-2.183339"><ele>168.85</ele><time>2011-08-10T10:49:09Z</time></trkpt><trkpt lat="51.711843" lon="-2.183290"><ele>170.29</ele><time>2011-08-10T10:49:15Z</time></trkpt><trkpt lat="51.711825" lon="-2.183271"><ele>171.73</ele><time>2011-08-10T10:49:19Z</time></trkpt><trkpt lat="51.711785" lon="-2.183210"><ele>175.58</ele><time>2011-08-10T10:49:27Z</time></trkpt><trkpt lat="51.711778" lon="-2.183186"><ele>177.02</ele><time>2011-08-10T10:49:32Z</time></trkpt><trkpt lat="51.711761" lon="-2.183157"><ele>177.98</ele><time>2011-08-10T10:49:40Z</time></trkpt><trkpt lat="51.711718" lon="-2.183087"><ele>179.42</ele><time>2011-08-10T10:49:47Z</time></trkpt><trkpt lat="51.711665" lon="-2.183161"><ele>179.90</ele><time>2011-08-10T10:49:55Z</time></trkpt><trkpt lat="51.711643" lon="-2.183265"><ele>181.35</ele><time>2011-08-10T10:50:02Z</time></trkpt><trkpt lat="51.711629" lon="-2.183355"><ele>181.83</ele><time>2011-08-10T10:50:09Z</time></trkpt><trkpt lat="51.711626" lon="-2.183378"><ele>181.35</ele><time>2011-08-10T10:50:11Z</time></trkpt><trkpt lat="51.711607" lon="-2.183467"><ele>181.83</ele><time>2011-08-10T10:50:19Z</time></trkpt><trkpt lat="51.711591" lon="-2.183538"><ele>182.31</ele><time>2011-08-10T10:50:26Z</time></trkpt><trkpt lat="51.711583" lon="-2.183618"><ele>182.79</ele><time>2011-08-10T10:50:33Z</time></trkpt><trkpt lat="51.711581" lon="-2.183627"><ele>182.79</ele><time>2011-08-10T10:50:34Z</time></trkpt><trkpt lat="51.711552" lon="-2.183711"><ele>182.79</ele><time>2011-08-10T10:50:42Z</time></trkpt><trkpt lat="51.711516" lon="-2.183811"><ele>181.35</ele><time>2011-08-10T10:50:51Z</time></trkpt><trkpt lat="51.711491" lon="-2.183868"><ele>181.35</ele><time>2011-08-10T10:50:57Z</time></trkpt><trkpt lat="51.711474" lon="-2.183919"><ele>181.35</ele><time>2011-08-10T10:51:02Z</time></trkpt><trkpt lat="51.711468" lon="-2.183938"><ele>181.83</ele><time>2011-08-10T10:51:04Z</time></trkpt><trkpt lat="51.711456" lon="-2.184008"><ele>183.27</ele><time>2011-08-10T10:51:12Z</time></trkpt><trkpt lat="51.711476" lon="-2.184065"><ele>186.63</ele><time>2011-08-10T10:51:19Z</time></trkpt><trkpt lat="51.711472" lon="-2.184132"><ele>187.59</ele><time>2011-08-10T10:51:25Z</time></trkpt><trkpt lat="51.711469" lon="-2.184235"><ele>187.11</ele><time>2011-08-10T10:51:32Z</time></trkpt><trkpt lat="51.711480" lon="-2.184333"><ele>187.59</ele><time>2011-08-10T10:51:39Z</time></trkpt><trkpt lat="51.711459" lon="-2.184396"><ele>189.04</ele><time>2011-08-10T10:51:48Z</time></trkpt><trkpt lat="51.711438" lon="-2.184465"><ele>189.04</ele><time>2011-08-10T10:51:56Z</time></trkpt><trkpt lat="51.711439" lon="-2.184551"><ele>187.59</ele><time>2011-08-10T10:52:03Z</time></trkpt><trkpt lat="51.711450" lon="-2.184630"><ele>186.63</ele><time>2011-08-10T10:52:11Z</time></trkpt><trkpt lat="51.711467" lon="-2.184724"><ele>185.67</ele><time>2011-08-10T10:52:19Z</time></trkpt><trkpt lat="51.711487" lon="-2.184835"><ele>186.15</ele><time>2011-08-10T10:52:29Z</time></trkpt><trkpt lat="51.711495" lon="-2.184951"><ele>184.71</ele><time>2011-08-10T10:52:38Z</time></trkpt><trkpt lat="51.711510" lon="-2.185051"><ele>181.83</ele><time>2011-08-10T10:52:48Z</time></trkpt><trkpt lat="51.711530" lon="-2.185153"><ele>181.83</ele><time>2011-08-10T10:52:56Z</time></trkpt><trkpt lat="51.711538" lon="-2.185259"><ele>183.75</ele><time>2011-08-10T10:53:03Z</time></trkpt><trkpt lat="51.711552" lon="-2.185359"><ele>184.71</ele><time>2011-08-10T10:53:09Z</time></trkpt><trkpt lat="51.711570" lon="-2.185462"><ele>185.19</ele><time>2011-08-10T10:53:15Z</time></trkpt><trkpt lat="51.711580" lon="-2.185550"><ele>186.63</ele><time>2011-08-10T10:53:21Z</time></trkpt><trkpt lat="51.711581" lon="-2.185681"><ele>187.59</ele><time>2011-08-10T10:53:29Z</time></trkpt><trkpt lat="51.711594" lon="-2.185794"><ele>188.08</ele><time>2011-08-10T10:53:36Z</time></trkpt><trkpt lat="51.711603" lon="-2.185914"><ele>188.56</ele><time>2011-08-10T10:53:44Z</time></trkpt><trkpt lat="51.711632" lon="-2.185901"><ele>188.56</ele><time>2011-08-10T10:53:56Z</time></trkpt><trkpt lat="51.711642" lon="-2.185915"><ele>189.04</ele><time>2011-08-10T10:54:01Z</time></trkpt><trkpt lat="51.711647" lon="-2.185973"><ele>189.04</ele><time>2011-08-10T10:54:07Z</time></trkpt><trkpt lat="51.711648" lon="-2.185988"><ele>188.56</ele><time>2011-08-10T10:54:08Z</time></trkpt><trkpt lat="51.711592" lon="-2.186132"><ele>187.11</ele><time>2011-08-10T10:54:17Z</time></trkpt><trkpt lat="51.711581" lon="-2.186150"><ele>187.11</ele><time>2011-08-10T10:54:19Z</time></trkpt><trkpt lat="51.711519" lon="-2.186248"><ele>188.08</ele><time>2011-08-10T10:54:27Z</time></trkpt><trkpt lat="51.711481" lon="-2.186340"><ele>190.48</ele><time>2011-08-10T10:54:34Z</time></trkpt><trkpt lat="51.711464" lon="-2.186400"><ele>190.48</ele><time>2011-08-10T10:54:41Z</time></trkpt><trkpt lat="51.711445" lon="-2.186488"><ele>191.44</ele><time>2011-08-10T10:54:48Z</time></trkpt><trkpt lat="51.711445" lon="-2.186502"><ele>191.44</ele><time>2011-08-10T10:54:54Z</time></trkpt><trkpt lat="51.711444" lon="-2.186512"><ele>191.92</ele><time>2011-08-10T10:54:55Z</time></trkpt><trkpt lat="51.711441" lon="-2.186598"><ele>192.40</ele><time>2011-08-10T10:55:00Z</time></trkpt><trkpt lat="51.711444" lon="-2.186740"><ele>192.40</ele><time>2011-08-10T10:55:08Z</time></trkpt><trkpt lat="51.711450" lon="-2.186914"><ele>191.92</ele><time>2011-08-10T10:55:18Z</time></trkpt><trkpt lat="51.711445" lon="-2.187099"><ele>189.52</ele><time>2011-08-10T10:55:29Z</time></trkpt><trkpt lat="51.711443" lon="-2.187205"><ele>188.08</ele><time>2011-08-10T10:55:35Z</time></trkpt><trkpt lat="51.711439" lon="-2.187357"><ele>185.67</ele><time>2011-08-10T10:55:45Z</time></trkpt><trkpt lat="51.711447" lon="-2.187499"><ele>183.75</ele><time>2011-08-10T10:55:54Z</time></trkpt><trkpt lat="51.711442" lon="-2.187670"><ele>183.27</ele><time>2011-08-10T10:56:03Z</time></trkpt><trkpt lat="51.711439" lon="-2.187823"><ele>182.79</ele><time>2011-08-10T10:56:13Z</time></trkpt><trkpt lat="51.711425" lon="-2.187970"><ele>183.27</ele><time>2011-08-10T10:56:22Z</time></trkpt><trkpt lat="51.711408" lon="-2.188135"><ele>183.27</ele><time>2011-08-10T10:56:31Z</time></trkpt><trkpt lat="51.711404" lon="-2.188205"><ele>183.27</ele><time>2011-08-10T10:56:35Z</time></trkpt><trkpt lat="51.711385" lon="-2.188362"><ele>183.27</ele><time>2011-08-10T10:56:44Z</time></trkpt><trkpt lat="51.711382" lon="-2.188537"><ele>182.79</ele><time>2011-08-10T10:56:55Z</time></trkpt><trkpt lat="51.711368" lon="-2.188828"><ele>185.67</ele><time>2011-08-10T10:57:10Z</time></trkpt><trkpt lat="51.711338" lon="-2.189072"><ele>187.59</ele><time>2011-08-10T10:57:24Z</time></trkpt><trkpt lat="51.711341" lon="-2.189256"><ele>187.11</ele><time>2011-08-10T10:57:35Z</time></trkpt><trkpt lat="51.711339" lon="-2.189336"><ele>187.11</ele><time>2011-08-10T10:57:39Z</time></trkpt><trkpt lat="51.711358" lon="-2.189517"><ele>188.08</ele><time>2011-08-10T10:57:49Z</time></trkpt><trkpt lat="51.711404" lon="-2.189708"><ele>187.11</ele><time>2011-08-10T10:58:00Z</time></trkpt><trkpt lat="51.711403" lon="-2.189783"><ele>188.56</ele><time>2011-08-10T10:58:06Z</time></trkpt><trkpt lat="51.711391" lon="-2.189816"><ele>190.48</ele><time>2011-08-10T10:58:13Z</time></trkpt><trkpt lat="51.711378" lon="-2.189828"><ele>190.96</ele><time>2011-08-10T10:58:15Z</time></trkpt><trkpt lat="51.711287" lon="-2.189819"><ele>190.96</ele><time>2011-08-10T10:58:24Z</time></trkpt><trkpt lat="51.711222" lon="-2.189792"><ele>190.00</ele><time>2011-08-10T10:58:31Z</time></trkpt><trkpt lat="51.711137" lon="-2.189781"><ele>189.52</ele><time>2011-08-10T10:58:39Z</time></trkpt><trkpt lat="51.711089" lon="-2.189758"><ele>189.04</ele><time>2011-08-10T10:58:46Z</time></trkpt><trkpt lat="51.711073" lon="-2.189719"><ele>190.00</ele><time>2011-08-10T10:59:00Z</time></trkpt><trkpt lat="51.710988" lon="-2.189692"><ele>190.48</ele><time>2011-08-10T10:59:07Z</time></trkpt><trkpt lat="51.710895" lon="-2.189653"><ele>193.36</ele><time>2011-08-10T10:59:14Z</time></trkpt><trkpt lat="51.710807" lon="-2.189634"><ele>193.36</ele><time>2011-08-10T10:59:22Z</time></trkpt><trkpt lat="51.710736" lon="-2.189645"><ele>193.84</ele><time>2011-08-10T10:59:28Z</time></trkpt><trkpt lat="51.710658" lon="-2.189637"><ele>196.73</ele><time>2011-08-10T10:59:36Z</time></trkpt><trkpt lat="51.710649" lon="-2.189636"><ele>197.21</ele><time>2011-08-10T10:59:37Z</time></trkpt><trkpt lat="51.710621" lon="-2.189639"><ele>197.69</ele><time>2011-08-10T10:59:40Z</time></trkpt><trkpt lat="51.710515" lon="-2.189627"><ele>198.65</ele><time>2011-08-10T10:59:49Z</time></trkpt><trkpt lat="51.710449" lon="-2.189605"><ele>198.65</ele><time>2011-08-10T10:59:57Z</time></trkpt><trkpt lat="51.710428" lon="-2.189623"><ele>200.09</ele><time>2011-08-10T11:00:13Z</time></trkpt><trkpt lat="51.710341" lon="-2.189617"><ele>201.53</ele><time>2011-08-10T11:00:21Z</time></trkpt><trkpt lat="51.710233" lon="-2.189613"><ele>200.09</ele><time>2011-08-10T11:00:29Z</time></trkpt><trkpt lat="51.710159" lon="-2.189581"><ele>199.61</ele><time>2011-08-10T11:00:36Z</time></trkpt><trkpt lat="51.710123" lon="-2.189580"><ele>200.09</ele><time>2011-08-10T11:00:46Z</time></trkpt><trkpt lat="51.710059" lon="-2.189635"><ele>200.09</ele><time>2011-08-10T11:00:52Z</time></trkpt><trkpt lat="51.709988" lon="-2.189650"><ele>200.09</ele><time>2011-08-10T11:01:00Z</time></trkpt><trkpt lat="51.709979" lon="-2.189647"><ele>200.09</ele><time>2011-08-10T11:01:01Z</time></trkpt><trkpt lat="51.709891" lon="-2.189567"><ele>200.57</ele><time>2011-08-10T11:01:11Z</time></trkpt><trkpt lat="51.709832" lon="-2.189498"><ele>201.53</ele><time>2011-08-10T11:01:19Z</time></trkpt><trkpt lat="51.709823" lon="-2.189476"><ele>201.05</ele><time>2011-08-10T11:01:21Z</time></trkpt><trkpt lat="51.709799" lon="-2.189415"><ele>201.05</ele><time>2011-08-10T11:01:26Z</time></trkpt><trkpt lat="51.709777" lon="-2.189277"><ele>201.53</ele><time>2011-08-10T11:01:35Z</time></trkpt><trkpt lat="51.709773" lon="-2.189245"><ele>201.53</ele><time>2011-08-10T11:01:37Z</time></trkpt><trkpt lat="51.709760" lon="-2.189102"><ele>202.01</ele><time>2011-08-10T11:01:46Z</time></trkpt><trkpt lat="51.709731" lon="-2.188962"><ele>201.53</ele><time>2011-08-10T11:01:55Z</time></trkpt><trkpt lat="51.709727" lon="-2.188949"><ele>201.53</ele><time>2011-08-10T11:01:56Z</time></trkpt><trkpt lat="51.709718" lon="-2.188871"><ele>201.53</ele><time>2011-08-10T11:02:02Z</time></trkpt><trkpt lat="51.709706" lon="-2.188747"><ele>202.01</ele><time>2011-08-10T11:02:11Z</time></trkpt><trkpt lat="51.709705" lon="-2.188581"><ele>202.49</ele><time>2011-08-10T11:02:20Z</time></trkpt><trkpt lat="51.709691" lon="-2.188482"><ele>202.01</ele><time>2011-08-10T11:02:27Z</time></trkpt><trkpt lat="51.709687" lon="-2.188369"><ele>201.05</ele><time>2011-08-10T11:02:36Z</time></trkpt><trkpt lat="51.709690" lon="-2.188273"><ele>201.05</ele><time>2011-08-10T11:02:43Z</time></trkpt><trkpt lat="51.709669" lon="-2.188156"><ele>200.57</ele><time>2011-08-10T11:02:51Z</time></trkpt><trkpt lat="51.709629" lon="-2.188023"><ele>200.57</ele><time>2011-08-10T11:02:59Z</time></trkpt><trkpt lat="51.709604" lon="-2.187949"><ele>200.57</ele><time>2011-08-10T11:03:03Z</time></trkpt><trkpt lat="51.709572" lon="-2.187848"><ele>200.57</ele><time>2011-08-10T11:03:11Z</time></trkpt><trkpt lat="51.709556" lon="-2.187788"><ele>200.57</ele><time>2011-08-10T11:03:17Z</time></trkpt><trkpt lat="51.709526" lon="-2.187668"><ele>201.05</ele><time>2011-08-10T11:03:25Z</time></trkpt><trkpt lat="51.709491" lon="-2.187579"><ele>201.05</ele><time>2011-08-10T11:03:31Z</time></trkpt><trkpt lat="51.709460" lon="-2.187499"><ele>201.05</ele><time>2011-08-10T11:03:36Z</time></trkpt><trkpt lat="51.709442" lon="-2.187443"><ele>201.05</ele><time>2011-08-10T11:03:40Z</time></trkpt><trkpt lat="51.709415" lon="-2.187332"><ele>201.53</ele><time>2011-08-10T11:03:48Z</time></trkpt><trkpt lat="51.709404" lon="-2.187287"><ele>201.53</ele><time>2011-08-10T11:03:51Z</time></trkpt><trkpt lat="51.709387" lon="-2.187180"><ele>201.53</ele><time>2011-08-10T11:03:58Z</time></trkpt><trkpt lat="51.709364" lon="-2.187021"><ele>202.01</ele><time>2011-08-10T11:04:08Z</time></trkpt><trkpt lat="51.709357" lon="-2.186999"><ele>201.53</ele><time>2011-08-10T11:04:10Z</time></trkpt><trkpt lat="51.709347" lon="-2.186950"><ele>199.61</ele><time>2011-08-10T11:04:15Z</time></trkpt><trkpt lat="51.709344" lon="-2.186889"><ele>198.17</ele><time>2011-08-10T11:04:19Z</time></trkpt><trkpt lat="51.709336" lon="-2.186813"><ele>197.69</ele><time>2011-08-10T11:04:23Z</time></trkpt><trkpt lat="51.709322" lon="-2.186642"><ele>199.61</ele><time>2011-08-10T11:04:32Z</time></trkpt><trkpt lat="51.709299" lon="-2.186486"><ele>200.09</ele><time>2011-08-10T11:04:41Z</time></trkpt><trkpt lat="51.709275" lon="-2.186386"><ele>197.21</ele><time>2011-08-10T11:04:49Z</time></trkpt><trkpt lat="51.709276" lon="-2.186337"><ele>196.73</ele><time>2011-08-10T11:04:58Z</time></trkpt><trkpt lat="51.709269" lon="-2.186214"><ele>196.73</ele><time>2011-08-10T11:05:05Z</time></trkpt><trkpt lat="51.709244" lon="-2.186041"><ele>197.69</ele><time>2011-08-10T11:05:15Z</time></trkpt><trkpt lat="51.709203" lon="-2.185804"><ele>198.65</ele><time>2011-08-10T11:05:28Z</time></trkpt><trkpt lat="51.709200" lon="-2.185744"><ele>199.61</ele><time>2011-08-10T11:05:35Z</time></trkpt><trkpt lat="51.709174" lon="-2.185514"><ele>199.13</ele><time>2011-08-10T11:05:48Z</time></trkpt><trkpt lat="51.709155" lon="-2.185289"><ele>199.13</ele><time>2011-08-10T11:06:01Z</time></trkpt><trkpt lat="51.709144" lon="-2.185101"><ele>199.61</ele><time>2011-08-10T11:06:12Z</time></trkpt><trkpt lat="51.709134" lon="-2.185051"><ele>199.61</ele><time>2011-08-10T11:06:19Z</time></trkpt><trkpt lat="51.709127" lon="-2.184887"><ele>199.61</ele><time>2011-08-10T11:06:29Z</time></trkpt><trkpt lat="51.709103" lon="-2.184652"><ele>199.61</ele><time>2011-08-10T11:06:42Z</time></trkpt><trkpt lat="51.709065" lon="-2.184421"><ele>199.61</ele><time>2011-08-10T11:06:56Z</time></trkpt><trkpt lat="51.709022" lon="-2.184224"><ele>199.61</ele><time>2011-08-10T11:07:08Z</time></trkpt><trkpt lat="51.708997" lon="-2.184025"><ele>200.57</ele><time>2011-08-10T11:07:19Z</time></trkpt><trkpt lat="51.708987" lon="-2.183953"><ele>198.65</ele><time>2011-08-10T11:07:27Z</time></trkpt><trkpt lat="51.708926" lon="-2.183751"><ele>200.57</ele><time>2011-08-10T11:07:42Z</time></trkpt><trkpt lat="51.708851" lon="-2.183519"><ele>202.01</ele><time>2011-08-10T11:07:57Z</time></trkpt><trkpt lat="51.708774" lon="-2.183284"><ele>201.53</ele><time>2011-08-10T11:08:12Z</time></trkpt><trkpt lat="51.708716" lon="-2.183082"><ele>203.94</ele><time>2011-08-10T11:08:26Z</time></trkpt><trkpt lat="51.708723" lon="-2.183028"><ele>202.98</ele><time>2011-08-10T11:08:37Z</time></trkpt><trkpt lat="51.708745" lon="-2.182832"><ele>203.46</ele><time>2011-08-10T11:08:49Z</time></trkpt><trkpt lat="51.708769" lon="-2.182717"><ele>203.46</ele><time>2011-08-10T11:08:57Z</time></trkpt><trkpt lat="51.708811" lon="-2.182529"><ele>203.46</ele><time>2011-08-10T11:09:09Z</time></trkpt><trkpt lat="51.708824" lon="-2.182478"><ele>202.49</ele><time>2011-08-10T11:09:19Z</time></trkpt><trkpt lat="51.708824" lon="-2.182472"><ele>202.01</ele><time>2011-08-10T11:09:34Z</time></trkpt><trkpt lat="51.708819" lon="-2.182294"><ele>202.98</ele><time>2011-08-10T11:09:42Z</time></trkpt><trkpt lat="51.708832" lon="-2.182029"><ele>203.94</ele><time>2011-08-10T11:09:57Z</time></trkpt><trkpt lat="51.708809" lon="-2.181815"><ele>205.38</ele><time>2011-08-10T11:10:10Z</time></trkpt><trkpt lat="51.708794" lon="-2.181795"><ele>204.90</ele><time>2011-08-10T11:10:20Z</time></trkpt><trkpt lat="51.708822" lon="-2.181800"><ele>205.38</ele><time>2011-08-10T11:10:26Z</time></trkpt><trkpt lat="51.708836" lon="-2.181711"><ele>203.46</ele><time>2011-08-10T11:10:34Z</time></trkpt><trkpt lat="51.708776" lon="-2.181490"><ele>202.98</ele><time>2011-08-10T11:10:47Z</time></trkpt><trkpt lat="51.708751" lon="-2.181348"><ele>202.98</ele><time>2011-08-10T11:10:57Z</time></trkpt><trkpt lat="51.708724" lon="-2.181206"><ele>204.42</ele><time>2011-08-10T11:11:06Z</time></trkpt><trkpt lat="51.708699" lon="-2.181028"><ele>204.42</ele><time>2011-08-10T11:11:18Z</time></trkpt><trkpt lat="51.708692" lon="-2.180977"><ele>205.38</ele><time>2011-08-10T11:11:25Z</time></trkpt><trkpt lat="51.708672" lon="-2.180947"><ele>205.86</ele><time>2011-08-10T11:11:31Z</time></trkpt><trkpt lat="51.708646" lon="-2.180900"><ele>205.38</ele><time>2011-08-10T11:11:40Z</time></trkpt><trkpt lat="51.708640" lon="-2.180875"><ele>205.38</ele><time>2011-08-10T11:11:42Z</time></trkpt><trkpt lat="51.708632" lon="-2.180849"><ele>205.38</ele><time>2011-08-10T11:11:44Z</time></trkpt><trkpt lat="51.708614" lon="-2.180745"><ele>204.90</ele><time>2011-08-10T11:11:51Z</time></trkpt><trkpt lat="51.708538" lon="-2.180550"><ele>203.46</ele><time>2011-08-10T11:12:03Z</time></trkpt><trkpt lat="51.708498" lon="-2.180371"><ele>204.90</ele><time>2011-08-10T11:12:15Z</time></trkpt><trkpt lat="51.708480" lon="-2.180334"><ele>204.90</ele><time>2011-08-10T11:12:18Z</time></trkpt><trkpt lat="51.708453" lon="-2.180206"><ele>203.94</ele><time>2011-08-10T11:12:27Z</time></trkpt><trkpt lat="51.708449" lon="-2.180144"><ele>203.94</ele><time>2011-08-10T11:12:32Z</time></trkpt><trkpt lat="51.708407" lon="-2.180036"><ele>203.46</ele><time>2011-08-10T11:12:40Z</time></trkpt><trkpt lat="51.708361" lon="-2.179811"><ele>202.01</ele><time>2011-08-10T11:12:53Z</time></trkpt><trkpt lat="51.708364" lon="-2.179641"><ele>201.53</ele><time>2011-08-10T11:13:03Z</time></trkpt><trkpt lat="51.708352" lon="-2.179575"><ele>202.01</ele><time>2011-08-10T11:13:07Z</time></trkpt><trkpt lat="51.708363" lon="-2.179446"><ele>201.53</ele><time>2011-08-10T11:13:14Z</time></trkpt><trkpt lat="51.708351" lon="-2.179330"><ele>201.53</ele><time>2011-08-10T11:13:21Z</time></trkpt><trkpt lat="51.708353" lon="-2.179239"><ele>201.05</ele><time>2011-08-10T11:13:26Z</time></trkpt><trkpt lat="51.708347" lon="-2.179121"><ele>201.05</ele><time>2011-08-10T11:13:35Z</time></trkpt><trkpt lat="51.708330" lon="-2.179058"><ele>201.53</ele><time>2011-08-10T11:14:00Z</time></trkpt><trkpt lat="51.708305" lon="-2.178965"><ele>202.01</ele><time>2011-08-10T11:14:12Z</time></trkpt><trkpt lat="51.708301" lon="-2.178943"><ele>202.01</ele><time>2011-08-10T11:14:21Z</time></trkpt><trkpt lat="51.708294" lon="-2.178845"><ele>198.65</ele><time>2011-08-10T11:14:47Z</time></trkpt><trkpt lat="51.708293" lon="-2.178793"><ele>198.65</ele><time>2011-08-10T11:14:50Z</time></trkpt><trkpt lat="51.708271" lon="-2.178630"><ele>199.61</ele><time>2011-08-10T11:15:00Z</time></trkpt><trkpt lat="51.708248" lon="-2.178481"><ele>200.09</ele><time>2011-08-10T11:15:09Z</time></trkpt><trkpt lat="51.708241" lon="-2.178378"><ele>200.09</ele><time>2011-08-10T11:15:16Z</time></trkpt><trkpt lat="51.708215" lon="-2.178225"><ele>201.05</ele><time>2011-08-10T11:15:27Z</time></trkpt><trkpt lat="51.708214" lon="-2.178163"><ele>201.05</ele><time>2011-08-10T11:15:41Z</time></trkpt><trkpt lat="51.708192" lon="-2.177944"><ele>202.49</ele><time>2011-08-10T11:15:53Z</time></trkpt><trkpt lat="51.708158" lon="-2.177760"><ele>202.98</ele><time>2011-08-10T11:16:04Z</time></trkpt><trkpt lat="51.708128" lon="-2.177573"><ele>202.01</ele><time>2011-08-10T11:16:15Z</time></trkpt><trkpt lat="51.708118" lon="-2.177540"><ele>202.49</ele><time>2011-08-10T11:16:17Z</time></trkpt><trkpt lat="51.708078" lon="-2.177306"><ele>201.53</ele><time>2011-08-10T11:16:31Z</time></trkpt><trkpt lat="51.708049" lon="-2.177206"><ele>201.53</ele><time>2011-08-10T11:16:38Z</time></trkpt><trkpt lat="51.708030" lon="-2.177125"><ele>202.01</ele><time>2011-08-10T11:16:45Z</time></trkpt><trkpt lat="51.708042" lon="-2.177064"><ele>201.53</ele><time>2011-08-10T11:16:53Z</time></trkpt><trkpt lat="51.708041" lon="-2.177053"><ele>201.53</ele><time>2011-08-10T11:16:54Z</time></trkpt><trkpt lat="51.708019" lon="-2.176951"><ele>203.46</ele><time>2011-08-10T11:17:01Z</time></trkpt><trkpt lat="51.708013" lon="-2.176853"><ele>204.42</ele><time>2011-08-10T11:17:07Z</time></trkpt><trkpt lat="51.708011" lon="-2.176822"><ele>204.42</ele><time>2011-08-10T11:17:09Z</time></trkpt><trkpt lat="51.707993" lon="-2.176641"><ele>204.42</ele><time>2011-08-10T11:17:19Z</time></trkpt><trkpt lat="51.707983" lon="-2.176510"><ele>203.94</ele><time>2011-08-10T11:17:27Z</time></trkpt><trkpt lat="51.707968" lon="-2.176469"><ele>203.46</ele><time>2011-08-10T11:17:35Z</time></trkpt><trkpt lat="51.707954" lon="-2.176339"><ele>202.98</ele><time>2011-08-10T11:17:43Z</time></trkpt><trkpt lat="51.707942" lon="-2.176236"><ele>202.98</ele><time>2011-08-10T11:17:48Z</time></trkpt><trkpt lat="51.707906" lon="-2.176065"><ele>202.49</ele><time>2011-08-10T11:17:58Z</time></trkpt><trkpt lat="51.707881" lon="-2.175911"><ele>202.01</ele><time>2011-08-10T11:18:06Z</time></trkpt><trkpt lat="51.707866" lon="-2.175752"><ele>201.53</ele><time>2011-08-10T11:18:15Z</time></trkpt><trkpt lat="51.707861" lon="-2.175564"><ele>201.53</ele><time>2011-08-10T11:18:25Z</time></trkpt><trkpt lat="51.707843" lon="-2.175463"><ele>202.01</ele><time>2011-08-10T11:18:31Z</time></trkpt><trkpt lat="51.707817" lon="-2.175384"><ele>201.53</ele><time>2011-08-10T11:18:37Z</time></trkpt><trkpt lat="51.707795" lon="-2.175269"><ele>201.53</ele><time>2011-08-10T11:18:44Z</time></trkpt><trkpt lat="51.707758" lon="-2.175162"><ele>201.05</ele><time>2011-08-10T11:18:51Z</time></trkpt><trkpt lat="51.707740" lon="-2.175049"><ele>201.05</ele><time>2011-08-10T11:18:58Z</time></trkpt><trkpt lat="51.707725" lon="-2.174975"><ele>200.57</ele><time>2011-08-10T11:19:04Z</time></trkpt><trkpt lat="51.707719" lon="-2.174948"><ele>200.57</ele><time>2011-08-10T11:19:06Z</time></trkpt><trkpt lat="51.707715" lon="-2.174894"><ele>200.57</ele><time>2011-08-10T11:19:09Z</time></trkpt><trkpt lat="51.707695" lon="-2.174755"><ele>199.61</ele><time>2011-08-10T11:19:17Z</time></trkpt><trkpt lat="51.707659" lon="-2.174636"><ele>200.09</ele><time>2011-08-10T11:19:25Z</time></trkpt><trkpt lat="51.707652" lon="-2.174549"><ele>199.61</ele><time>2011-08-10T11:19:30Z</time></trkpt><trkpt lat="51.707640" lon="-2.174464"><ele>198.17</ele><time>2011-08-10T11:19:35Z</time></trkpt><trkpt lat="51.707635" lon="-2.174427"><ele>198.17</ele><time>2011-08-10T11:19:37Z</time></trkpt><trkpt lat="51.707629" lon="-2.174353"><ele>197.69</ele><time>2011-08-10T11:19:41Z</time></trkpt><trkpt lat="51.707623" lon="-2.174222"><ele>196.73</ele><time>2011-08-10T11:19:50Z</time></trkpt><trkpt lat="51.707624" lon="-2.174127"><ele>196.25</ele><time>2011-08-10T11:19:55Z</time></trkpt><trkpt lat="51.707640" lon="-2.174028"><ele>194.80</ele><time>2011-08-10T11:20:01Z</time></trkpt><trkpt lat="51.707607" lon="-2.173844"><ele>193.84</ele><time>2011-08-10T11:20:12Z</time></trkpt><trkpt lat="51.707561" lon="-2.173700"><ele>194.32</ele><time>2011-08-10T11:20:21Z</time></trkpt><trkpt lat="51.707551" lon="-2.173606"><ele>193.84</ele><time>2011-08-10T11:20:26Z</time></trkpt><trkpt lat="51.707533" lon="-2.173533"><ele>194.32</ele><time>2011-08-10T11:20:30Z</time></trkpt><trkpt lat="51.707491" lon="-2.173329"><ele>195.28</ele><time>2011-08-10T11:20:42Z</time></trkpt><trkpt lat="51.707493" lon="-2.173264"><ele>195.28</ele><time>2011-08-10T11:20:46Z</time></trkpt><trkpt lat="51.707486" lon="-2.173157"><ele>195.77</ele><time>2011-08-10T11:20:53Z</time></trkpt><trkpt lat="51.707501" lon="-2.172983"><ele>196.73</ele><time>2011-08-10T11:21:03Z</time></trkpt><trkpt lat="51.707529" lon="-2.172830"><ele>197.21</ele><time>2011-08-10T11:21:14Z</time></trkpt><trkpt lat="51.707549" lon="-2.172711"><ele>198.65</ele><time>2011-08-10T11:21:24Z</time></trkpt><trkpt lat="51.707570" lon="-2.172650"><ele>198.65</ele><time>2011-08-10T11:21:32Z</time></trkpt><trkpt lat="51.707564" lon="-2.172635"><ele>198.65</ele><time>2011-08-10T11:21:42Z</time></trkpt><trkpt lat="51.707559" lon="-2.172621"><ele>198.17</ele><time>2011-08-10T11:22:00Z</time></trkpt><trkpt lat="51.707549" lon="-2.172619"><ele>197.69</ele><time>2011-08-10T11:22:16Z</time></trkpt><trkpt lat="51.707533" lon="-2.172592"><ele>198.65</ele><time>2011-08-10T11:22:23Z</time></trkpt><trkpt lat="51.707536" lon="-2.172580"><ele>198.65</ele><time>2011-08-10T11:22:38Z</time></trkpt><trkpt lat="51.707525" lon="-2.172575"><ele>197.69</ele><time>2011-08-10T11:22:50Z</time></trkpt><trkpt lat="51.707525" lon="-2.172564"><ele>197.69</ele><time>2011-08-10T11:23:01Z</time></trkpt><trkpt lat="51.707526" lon="-2.172564"><ele>197.69</ele><time>2011-08-10T11:23:20Z</time></trkpt><trkpt lat="51.707511" lon="-2.172536"><ele>197.69</ele><time>2011-08-10T11:24:03Z</time></trkpt><trkpt lat="51.707454" lon="-2.172416"><ele>198.17</ele><time>2011-08-10T11:24:13Z</time></trkpt><trkpt lat="51.707384" lon="-2.172260"><ele>198.65</ele><time>2011-08-10T11:24:24Z</time></trkpt><trkpt lat="51.707319" lon="-2.172074"><ele>198.65</ele><time>2011-08-10T11:24:36Z</time></trkpt><trkpt lat="51.707290" lon="-2.172001"><ele>199.13</ele><time>2011-08-10T11:24:41Z</time></trkpt><trkpt lat="51.707224" lon="-2.171796"><ele>199.61</ele><time>2011-08-10T11:24:54Z</time></trkpt><trkpt lat="51.707160" lon="-2.171646"><ele>199.13</ele><time>2011-08-10T11:25:05Z</time></trkpt><trkpt lat="51.707094" lon="-2.171463"><ele>199.13</ele><time>2011-08-10T11:25:18Z</time></trkpt><trkpt lat="51.707015" lon="-2.171232"><ele>198.65</ele><time>2011-08-10T11:25:33Z</time></trkpt><trkpt lat="51.706962" lon="-2.171081"><ele>198.17</ele><time>2011-08-10T11:25:43Z</time></trkpt><trkpt lat="51.706892" lon="-2.170864"><ele>198.17</ele><time>2011-08-10T11:25:57Z</time></trkpt><trkpt lat="51.706821" lon="-2.170602"><ele>198.65</ele><time>2011-08-10T11:26:13Z</time></trkpt><trkpt lat="51.706770" lon="-2.170434"><ele>199.13</ele><time>2011-08-10T11:26:25Z</time></trkpt><trkpt lat="51.706762" lon="-2.170411"><ele>199.13</ele><time>2011-08-10T11:26:34Z</time></trkpt><trkpt lat="51.706770" lon="-2.170404"><ele>198.65</ele><time>2011-08-10T11:26:52Z</time></trkpt><trkpt lat="51.706758" lon="-2.170378"><ele>198.17</ele><time>2011-08-10T11:27:00Z</time></trkpt><trkpt lat="51.706750" lon="-2.170214"><ele>197.69</ele><time>2011-08-10T11:27:08Z</time></trkpt><trkpt lat="51.706729" lon="-2.169996"><ele>197.69</ele><time>2011-08-10T11:27:20Z</time></trkpt><trkpt lat="51.706715" lon="-2.169831"><ele>198.17</ele><time>2011-08-10T11:27:29Z</time></trkpt><trkpt lat="51.706699" lon="-2.169662"><ele>198.17</ele><time>2011-08-10T11:27:38Z</time></trkpt><trkpt lat="51.706691" lon="-2.169466"><ele>198.65</ele><time>2011-08-10T11:27:49Z</time></trkpt><trkpt lat="51.706685" lon="-2.169330"><ele>198.65</ele><time>2011-08-10T11:27:57Z</time></trkpt><trkpt lat="51.706677" lon="-2.169204"><ele>198.65</ele><time>2011-08-10T11:28:04Z</time></trkpt><trkpt lat="51.706669" lon="-2.169071"><ele>198.65</ele><time>2011-08-10T11:28:12Z</time></trkpt><trkpt lat="51.706658" lon="-2.168868"><ele>198.17</ele><time>2011-08-10T11:28:23Z</time></trkpt><trkpt lat="51.706658" lon="-2.168703"><ele>197.69</ele><time>2011-08-10T11:28:32Z</time></trkpt><trkpt lat="51.706659" lon="-2.168650"><ele>197.69</ele><time>2011-08-10T11:28:35Z</time></trkpt><trkpt lat="51.706644" lon="-2.168474"><ele>197.21</ele><time>2011-08-10T11:28:45Z</time></trkpt><trkpt lat="51.706640" lon="-2.168313"><ele>196.25</ele><time>2011-08-10T11:28:54Z</time></trkpt><trkpt lat="51.706638" lon="-2.168146"><ele>195.77</ele><time>2011-08-10T11:29:04Z</time></trkpt><trkpt lat="51.706623" lon="-2.167987"><ele>195.28</ele><time>2011-08-10T11:29:13Z</time></trkpt><trkpt lat="51.706617" lon="-2.167864"><ele>194.80</ele><time>2011-08-10T11:29:20Z</time></trkpt><trkpt lat="51.706606" lon="-2.167718"><ele>194.80</ele><time>2011-08-10T11:29:29Z</time></trkpt><trkpt lat="51.706585" lon="-2.167580"><ele>194.32</ele><time>2011-08-10T11:29:38Z</time></trkpt><trkpt lat="51.706579" lon="-2.167504"><ele>194.32</ele><time>2011-08-10T11:29:45Z</time></trkpt><trkpt lat="51.706566" lon="-2.167500"><ele>194.32</ele><time>2011-08-10T11:29:53Z</time></trkpt><trkpt lat="51.706566" lon="-2.167485"><ele>194.80</ele><time>2011-08-10T11:30:01Z</time></trkpt><trkpt lat="51.706566" lon="-2.167483"><ele>194.80</ele><time>2011-08-10T11:30:03Z</time></trkpt><trkpt lat="51.706559" lon="-2.167432"><ele>194.32</ele><time>2011-08-10T11:30:10Z</time></trkpt><trkpt lat="51.706555" lon="-2.167392"><ele>194.32</ele><time>2011-08-10T11:30:16Z</time></trkpt><trkpt lat="51.706567" lon="-2.167215"><ele>194.32</ele><time>2011-08-10T11:30:26Z</time></trkpt><trkpt lat="51.706561" lon="-2.167059"><ele>193.84</ele><time>2011-08-10T11:30:35Z</time></trkpt><trkpt lat="51.706549" lon="-2.166883"><ele>193.84</ele><time>2011-08-10T11:30:45Z</time></trkpt><trkpt lat="51.706532" lon="-2.166704"><ele>193.84</ele><time>2011-08-10T11:30:55Z</time></trkpt><trkpt lat="51.706492" lon="-2.166527"><ele>193.36</ele><time>2011-08-10T11:31:05Z</time></trkpt><trkpt lat="51.706439" lon="-2.166330"><ele>192.40</ele><time>2011-08-10T11:31:17Z</time></trkpt><trkpt lat="51.706406" lon="-2.166178"><ele>192.40</ele><time>2011-08-10T11:31:26Z</time></trkpt><trkpt lat="51.706396" lon="-2.166108"><ele>192.40</ele><time>2011-08-10T11:31:32Z</time></trkpt><trkpt lat="51.706381" lon="-2.166066"><ele>191.92</ele><time>2011-08-10T11:31:38Z</time></trkpt><trkpt lat="51.706372" lon="-2.166070"><ele>191.44</ele><time>2011-08-10T11:32:01Z</time></trkpt><trkpt lat="51.706372" lon="-2.166086"><ele>191.44</ele><time>2011-08-10T11:32:29Z</time></trkpt><trkpt lat="51.706370" lon="-2.166081"><ele>191.44</ele><time>2011-08-10T11:33:11Z</time></trkpt><trkpt lat="51.706368" lon="-2.166053"><ele>190.96</ele><time>2011-08-10T11:33:47Z</time></trkpt><trkpt lat="51.706366" lon="-2.166041"><ele>190.96</ele><time>2011-08-10T11:33:48Z</time></trkpt><trkpt lat="51.706386" lon="-2.165969"><ele>190.96</ele><time>2011-08-10T11:33:53Z</time></trkpt><trkpt lat="51.706494" lon="-2.165913"><ele>190.48</ele><time>2011-08-10T11:34:04Z</time></trkpt><trkpt lat="51.706593" lon="-2.165898"><ele>190.48</ele><time>2011-08-10T11:34:13Z</time></trkpt><trkpt lat="51.706689" lon="-2.165871"><ele>190.48</ele><time>2011-08-10T11:34:23Z</time></trkpt><trkpt lat="51.706758" lon="-2.165861"><ele>190.96</ele><time>2011-08-10T11:34:30Z</time></trkpt><trkpt lat="51.706857" lon="-2.165840"><ele>190.96</ele><time>2011-08-10T11:34:39Z</time></trkpt><trkpt lat="51.706954" lon="-2.165819"><ele>190.48</ele><time>2011-08-10T11:34:49Z</time></trkpt><trkpt lat="51.707064" lon="-2.165798"><ele>190.96</ele><time>2011-08-10T11:34:59Z</time></trkpt><trkpt lat="51.707171" lon="-2.165777"><ele>190.96</ele><time>2011-08-10T11:35:08Z</time></trkpt><trkpt lat="51.707290" lon="-2.165749"><ele>190.96</ele><time>2011-08-10T11:35:18Z</time></trkpt><trkpt lat="51.707430" lon="-2.165727"><ele>191.44</ele><time>2011-08-10T11:35:30Z</time></trkpt><trkpt lat="51.707573" lon="-2.165710"><ele>191.92</ele><time>2011-08-10T11:35:42Z</time></trkpt><trkpt lat="51.707723" lon="-2.165695"><ele>191.92</ele><time>2011-08-10T11:35:55Z</time></trkpt><trkpt lat="51.707849" lon="-2.165672"><ele>192.40</ele><time>2011-08-10T11:36:06Z</time></trkpt><trkpt lat="51.707960" lon="-2.165657"><ele>192.40</ele><time>2011-08-10T11:36:16Z</time></trkpt><trkpt lat="51.708033" lon="-2.165647"><ele>192.40</ele><time>2011-08-10T11:36:24Z</time></trkpt><trkpt lat="51.708101" lon="-2.165639"><ele>192.88</ele><time>2011-08-10T11:36:31Z</time></trkpt><trkpt lat="51.708191" lon="-2.165638"><ele>193.36</ele><time>2011-08-10T11:36:40Z</time></trkpt><trkpt lat="51.708294" lon="-2.165618"><ele>193.36</ele><time>2011-08-10T11:36:50Z</time></trkpt><trkpt lat="51.708392" lon="-2.165607"><ele>193.84</ele><time>2011-08-10T11:36:59Z</time></trkpt><trkpt lat="51.708478" lon="-2.165593"><ele>193.84</ele><time>2011-08-10T11:37:07Z</time></trkpt><trkpt lat="51.708574" lon="-2.165584"><ele>193.84</ele><time>2011-08-10T11:37:16Z</time></trkpt><trkpt lat="51.708656" lon="-2.165580"><ele>194.32</ele><time>2011-08-10T11:37:24Z</time></trkpt><trkpt lat="51.708767" lon="-2.165554"><ele>194.32</ele><time>2011-08-10T11:37:35Z</time></trkpt><trkpt lat="51.708775" lon="-2.165540"><ele>194.32</ele><time>2011-08-10T11:37:38Z</time></trkpt><trkpt lat="51.708807" lon="-2.165428"><ele>195.28</ele><time>2011-08-10T11:37:45Z</time></trkpt><trkpt lat="51.708805" lon="-2.165405"><ele>194.80</ele><time>2011-08-10T11:37:46Z</time></trkpt><trkpt lat="51.708786" lon="-2.165144"><ele>195.77</ele><time>2011-08-10T11:37:58Z</time></trkpt><trkpt lat="51.708775" lon="-2.165016"><ele>195.77</ele><time>2011-08-10T11:38:07Z</time></trkpt><trkpt lat="51.708771" lon="-2.165022"><ele>195.77</ele><time>2011-08-10T11:38:15Z</time></trkpt></trkseg></trk></gpx>